<?xml version="1.0" encoding="UTF-8" standalone="no" ?>
<gpx xmlns="http://www.topografix.com/GPX/1/1" xmlns:xsi="http://www.w3.org/2001/XMLSchema-instance" xsi:schemaLocation="http://www.topografix.com/GPX/1/1 http://www.topografix.com/GPX/1/1/gpx.xsd" version="1.1" creator="VisuGPX - https://www.visugpx.com">
  <metadata>
    <name>Grand Sangle de Belles-Ombres</name>
    <desc><![CDATA[Montée depuis Pré-Orcel puis retour par les crêtes.]]></desc>
  </metadata>
  <trk>
    <name><![CDATA[Tracé actuel: 22 AOU 2013 10:00]]></name>
    <trkseg>
      <trkpt lat="45.42081" lon="5.93756">
        <ele>1417.12</ele>
        <time>2013-08-22T08:01:31Z</time>
      </trkpt>
      <trkpt lat="45.42092" lon="5.93758">
        <ele>1420.49</ele>
        <time>2013-08-22T08:01:41Z</time>
      </trkpt>
      <trkpt lat="45.42101" lon="5.93753">
        <ele>1420.97</ele>
        <time>2013-08-22T08:01:50Z</time>
      </trkpt>
      <trkpt lat="45.42109" lon="5.93749">
        <ele>1420</ele>
        <time>2013-08-22T08:02:05Z</time>
      </trkpt>
      <trkpt lat="45.42117" lon="5.93746">
        <ele>1422.89</ele>
        <time>2013-08-22T08:02:20Z</time>
      </trkpt>
      <trkpt lat="45.42128" lon="5.93748">
        <ele>1424.33</ele>
        <time>2013-08-22T08:02:35Z</time>
      </trkpt>
      <trkpt lat="45.42141" lon="5.93747">
        <ele>1426.73</ele>
        <time>2013-08-22T08:02:52Z</time>
      </trkpt>
      <trkpt lat="45.42153" lon="5.93748">
        <ele>1435.39</ele>
        <time>2013-08-22T08:03:11Z</time>
      </trkpt>
      <trkpt lat="45.42166" lon="5.93744">
        <ele>1440.67</ele>
        <time>2013-08-22T08:03:26Z</time>
      </trkpt>
      <trkpt lat="45.42177" lon="5.93746">
        <ele>1445.48</ele>
        <time>2013-08-22T08:03:43Z</time>
      </trkpt>
      <trkpt lat="45.42187" lon="5.93747">
        <ele>1447.88</ele>
        <time>2013-08-22T08:03:59Z</time>
      </trkpt>
      <trkpt lat="45.42198" lon="5.93753">
        <ele>1455.57</ele>
        <time>2013-08-22T08:04:21Z</time>
      </trkpt>
      <trkpt lat="45.42212" lon="5.93766">
        <ele>1455.09</ele>
        <time>2013-08-22T08:04:45Z</time>
      </trkpt>
      <trkpt lat="45.42223" lon="5.93768">
        <ele>1456.05</ele>
        <time>2013-08-22T08:05:03Z</time>
      </trkpt>
      <trkpt lat="45.42235" lon="5.93771">
        <ele>1460.38</ele>
        <time>2013-08-22T08:05:20Z</time>
      </trkpt>
      <trkpt lat="45.42245" lon="5.93764">
        <ele>1465.19</ele>
        <time>2013-08-22T08:05:37Z</time>
      </trkpt>
      <trkpt lat="45.42258" lon="5.93764">
        <ele>1472.88</ele>
        <time>2013-08-22T08:06:05Z</time>
      </trkpt>
      <trkpt lat="45.42273" lon="5.93761">
        <ele>1480.09</ele>
        <time>2013-08-22T08:06:33Z</time>
      </trkpt>
      <trkpt lat="45.42287" lon="5.93766">
        <ele>1486.82</ele>
        <time>2013-08-22T08:06:58Z</time>
      </trkpt>
      <trkpt lat="45.42299" lon="5.93768">
        <ele>1487.78</ele>
        <time>2013-08-22T08:07:23Z</time>
      </trkpt>
      <trkpt lat="45.42312" lon="5.93765">
        <ele>1490.18</ele>
        <time>2013-08-22T08:07:45Z</time>
      </trkpt>
      <trkpt lat="45.42322" lon="5.93765">
        <ele>1492.1</ele>
        <time>2013-08-22T08:08:06Z</time>
      </trkpt>
      <trkpt lat="45.42334" lon="5.93765">
        <ele>1495.95</ele>
        <time>2013-08-22T08:08:24Z</time>
      </trkpt>
      <trkpt lat="45.42345" lon="5.93759">
        <ele>1499.79</ele>
        <time>2013-08-22T08:08:43Z</time>
      </trkpt>
      <trkpt lat="45.42362" lon="5.93767">
        <ele>1504.6</ele>
        <time>2013-08-22T08:09:07Z</time>
      </trkpt>
      <trkpt lat="45.42381" lon="5.93775">
        <ele>1503.64</ele>
        <time>2013-08-22T08:10:44Z</time>
      </trkpt>
      <trkpt lat="45.42388" lon="5.93784">
        <ele>1511.33</ele>
        <time>2013-08-22T08:11:01Z</time>
      </trkpt>
      <trkpt lat="45.42395" lon="5.93793">
        <ele>1515.18</ele>
        <time>2013-08-22T08:11:17Z</time>
      </trkpt>
      <trkpt lat="45.42406" lon="5.93803">
        <ele>1511.33</ele>
        <time>2013-08-22T08:11:31Z</time>
      </trkpt>
      <trkpt lat="45.42415" lon="5.93812">
        <ele>1512.29</ele>
        <time>2013-08-22T08:11:44Z</time>
      </trkpt>
      <trkpt lat="45.42425" lon="5.93821">
        <ele>1512.77</ele>
        <time>2013-08-22T08:12:00Z</time>
      </trkpt>
      <trkpt lat="45.42436" lon="5.93826">
        <ele>1510.37</ele>
        <time>2013-08-22T08:12:15Z</time>
      </trkpt>
      <trkpt lat="45.42447" lon="5.93826">
        <ele>1508.93</ele>
        <time>2013-08-22T08:12:27Z</time>
      </trkpt>
      <trkpt lat="45.42458" lon="5.93825">
        <ele>1508.45</ele>
        <time>2013-08-22T08:12:39Z</time>
      </trkpt>
      <trkpt lat="45.42466" lon="5.93823">
        <ele>1509.41</ele>
        <time>2013-08-22T08:12:53Z</time>
      </trkpt>
      <trkpt lat="45.42462" lon="5.93813">
        <ele>1511.33</ele>
        <time>2013-08-22T08:13:08Z</time>
      </trkpt>
      <trkpt lat="45.42458" lon="5.93802">
        <ele>1513.73</ele>
        <time>2013-08-22T08:13:23Z</time>
      </trkpt>
      <trkpt lat="45.42453" lon="5.9379">
        <ele>1516.14</ele>
        <time>2013-08-22T08:13:37Z</time>
      </trkpt>
      <trkpt lat="45.42448" lon="5.93778">
        <ele>1519.5</ele>
        <time>2013-08-22T08:13:53Z</time>
      </trkpt>
      <trkpt lat="45.42443" lon="5.93769">
        <ele>1520.94</ele>
        <time>2013-08-22T08:14:08Z</time>
      </trkpt>
      <trkpt lat="45.42448" lon="5.93767">
        <ele>1524.79</ele>
        <time>2013-08-22T08:14:24Z</time>
      </trkpt>
      <trkpt lat="45.42458" lon="5.9377">
        <ele>1526.71</ele>
        <time>2013-08-22T08:15:05Z</time>
      </trkpt>
      <trkpt lat="45.42463" lon="5.93768">
        <ele>1528.63</ele>
        <time>2013-08-22T08:15:19Z</time>
      </trkpt>
      <trkpt lat="45.42463" lon="5.93756">
        <ele>1530.56</ele>
        <time>2013-08-22T08:15:34Z</time>
      </trkpt>
      <trkpt lat="45.42458" lon="5.93746">
        <ele>1532.96</ele>
        <time>2013-08-22T08:15:48Z</time>
      </trkpt>
      <trkpt lat="45.42454" lon="5.93736">
        <ele>1535.84</ele>
        <time>2013-08-22T08:16:03Z</time>
      </trkpt>
      <trkpt lat="45.42448" lon="5.93725">
        <ele>1536.8</ele>
        <time>2013-08-22T08:16:17Z</time>
      </trkpt>
      <trkpt lat="45.42441" lon="5.93717">
        <ele>1539.69</ele>
        <time>2013-08-22T08:16:33Z</time>
      </trkpt>
      <trkpt lat="45.42435" lon="5.93705">
        <ele>1540.65</ele>
        <time>2013-08-22T08:16:46Z</time>
      </trkpt>
      <trkpt lat="45.42428" lon="5.93695">
        <ele>1543.53</ele>
        <time>2013-08-22T08:17:01Z</time>
      </trkpt>
      <trkpt lat="45.42422" lon="5.93686">
        <ele>1545.94</ele>
        <time>2013-08-22T08:17:15Z</time>
      </trkpt>
      <trkpt lat="45.42414" lon="5.93676">
        <ele>1548.82</ele>
        <time>2013-08-22T08:17:30Z</time>
      </trkpt>
      <trkpt lat="45.42407" lon="5.93665">
        <ele>1550.74</ele>
        <time>2013-08-22T08:17:44Z</time>
      </trkpt>
      <trkpt lat="45.42409" lon="5.93658">
        <ele>1550.26</ele>
        <time>2013-08-22T08:17:59Z</time>
      </trkpt>
      <trkpt lat="45.42416" lon="5.93664">
        <ele>1552.19</ele>
        <time>2013-08-22T08:18:12Z</time>
      </trkpt>
      <trkpt lat="45.42424" lon="5.9367">
        <ele>1555.55</ele>
        <time>2013-08-22T08:18:26Z</time>
      </trkpt>
      <trkpt lat="45.42433" lon="5.93676">
        <ele>1558.92</ele>
        <time>2013-08-22T08:18:40Z</time>
      </trkpt>
      <trkpt lat="45.42441" lon="5.93686">
        <ele>1563.24</ele>
        <time>2013-08-22T08:18:54Z</time>
      </trkpt>
      <trkpt lat="45.4245" lon="5.93692">
        <ele>1567.09</ele>
        <time>2013-08-22T08:19:09Z</time>
      </trkpt>
      <trkpt lat="45.42458" lon="5.93699">
        <ele>1570.93</ele>
        <time>2013-08-22T08:19:24Z</time>
      </trkpt>
      <trkpt lat="45.42468" lon="5.93706">
        <ele>1574.78</ele>
        <time>2013-08-22T08:19:40Z</time>
      </trkpt>
      <trkpt lat="45.42478" lon="5.93714">
        <ele>1576.7</ele>
        <time>2013-08-22T08:19:53Z</time>
      </trkpt>
      <trkpt lat="45.42488" lon="5.93719">
        <ele>1577.18</ele>
        <time>2013-08-22T08:20:07Z</time>
      </trkpt>
      <trkpt lat="45.42497" lon="5.93721">
        <ele>1578.62</ele>
        <time>2013-08-22T08:20:21Z</time>
      </trkpt>
      <trkpt lat="45.42508" lon="5.93724">
        <ele>1578.14</ele>
        <time>2013-08-22T08:20:35Z</time>
      </trkpt>
      <trkpt lat="45.4252" lon="5.93727">
        <ele>1580.06</ele>
        <time>2013-08-22T08:20:51Z</time>
      </trkpt>
      <trkpt lat="45.4253" lon="5.93724">
        <ele>1580.06</ele>
        <time>2013-08-22T08:21:05Z</time>
      </trkpt>
      <trkpt lat="45.42525" lon="5.93722">
        <ele>1581.03</ele>
        <time>2013-08-22T08:21:18Z</time>
      </trkpt>
      <trkpt lat="45.42517" lon="5.93719">
        <ele>1583.91</ele>
        <time>2013-08-22T08:21:33Z</time>
      </trkpt>
      <trkpt lat="45.42508" lon="5.93711">
        <ele>1586.31</ele>
        <time>2013-08-22T08:21:47Z</time>
      </trkpt>
      <trkpt lat="45.425" lon="5.93704">
        <ele>1587.75</ele>
        <time>2013-08-22T08:22:00Z</time>
      </trkpt>
      <trkpt lat="45.42494" lon="5.93695">
        <ele>1590.16</ele>
        <time>2013-08-22T08:22:14Z</time>
      </trkpt>
      <trkpt lat="45.42488" lon="5.93689">
        <ele>1592.56</ele>
        <time>2013-08-22T08:22:40Z</time>
      </trkpt>
      <trkpt lat="45.4248" lon="5.9368">
        <ele>1595.45</ele>
        <time>2013-08-22T08:22:53Z</time>
      </trkpt>
      <trkpt lat="45.42471" lon="5.93668">
        <ele>1600.73</ele>
        <time>2013-08-22T08:23:10Z</time>
      </trkpt>
      <trkpt lat="45.42463" lon="5.93654">
        <ele>1602.66</ele>
        <time>2013-08-22T08:23:26Z</time>
      </trkpt>
      <trkpt lat="45.42455" lon="5.9364">
        <ele>1604.1</ele>
        <time>2013-08-22T08:23:43Z</time>
      </trkpt>
      <trkpt lat="45.42447" lon="5.93629">
        <ele>1605.06</ele>
        <time>2013-08-22T08:23:59Z</time>
      </trkpt>
      <trkpt lat="45.42438" lon="5.93621">
        <ele>1605.54</ele>
        <time>2013-08-22T08:24:13Z</time>
      </trkpt>
      <trkpt lat="45.42434" lon="5.93605">
        <ele>1606.5</ele>
        <time>2013-08-22T08:24:27Z</time>
      </trkpt>
      <trkpt lat="45.42426" lon="5.93589">
        <ele>1603.62</ele>
        <time>2013-08-22T08:24:40Z</time>
      </trkpt>
      <trkpt lat="45.42421" lon="5.93578">
        <ele>1604.1</ele>
        <time>2013-08-22T08:24:52Z</time>
      </trkpt>
      <trkpt lat="45.42414" lon="5.93569">
        <ele>1605.54</ele>
        <time>2013-08-22T08:25:05Z</time>
      </trkpt>
      <trkpt lat="45.42407" lon="5.93558">
        <ele>1606.5</ele>
        <time>2013-08-22T08:25:18Z</time>
      </trkpt>
      <trkpt lat="45.42398" lon="5.93551">
        <ele>1607.94</ele>
        <time>2013-08-22T08:25:31Z</time>
      </trkpt>
      <trkpt lat="45.42388" lon="5.93543">
        <ele>1608.9</ele>
        <time>2013-08-22T08:25:43Z</time>
      </trkpt>
      <trkpt lat="45.4238" lon="5.93537">
        <ele>1610.35</ele>
        <time>2013-08-22T08:25:56Z</time>
      </trkpt>
      <trkpt lat="45.42371" lon="5.93532">
        <ele>1611.31</ele>
        <time>2013-08-22T08:26:09Z</time>
      </trkpt>
      <trkpt lat="45.42362" lon="5.93526">
        <ele>1613.71</ele>
        <time>2013-08-22T08:26:23Z</time>
      </trkpt>
      <trkpt lat="45.42353" lon="5.93522">
        <ele>1616.59</ele>
        <time>2013-08-22T08:26:38Z</time>
      </trkpt>
      <trkpt lat="45.42345" lon="5.93515">
        <ele>1617.56</ele>
        <time>2013-08-22T08:26:50Z</time>
      </trkpt>
      <trkpt lat="45.42336" lon="5.93508">
        <ele>1617.56</ele>
        <time>2013-08-22T08:27:02Z</time>
      </trkpt>
      <trkpt lat="45.42329" lon="5.935">
        <ele>1618.04</ele>
        <time>2013-08-22T08:27:13Z</time>
      </trkpt>
      <trkpt lat="45.42322" lon="5.93489">
        <ele>1618.04</ele>
        <time>2013-08-22T08:27:27Z</time>
      </trkpt>
      <trkpt lat="45.42313" lon="5.93478">
        <ele>1619.48</ele>
        <time>2013-08-22T08:27:42Z</time>
      </trkpt>
      <trkpt lat="45.42304" lon="5.93476">
        <ele>1624.28</ele>
        <time>2013-08-22T08:27:56Z</time>
      </trkpt>
      <trkpt lat="45.42295" lon="5.93472">
        <ele>1626.69</ele>
        <time>2013-08-22T08:28:09Z</time>
      </trkpt>
      <trkpt lat="45.42286" lon="5.93461">
        <ele>1626.21</ele>
        <time>2013-08-22T08:28:21Z</time>
      </trkpt>
      <trkpt lat="45.42276" lon="5.9345">
        <ele>1622.84</ele>
        <time>2013-08-22T08:28:33Z</time>
      </trkpt>
      <trkpt lat="45.42265" lon="5.93437">
        <ele>1623.32</ele>
        <time>2013-08-22T08:28:47Z</time>
      </trkpt>
      <trkpt lat="45.42256" lon="5.93425">
        <ele>1622.36</ele>
        <time>2013-08-22T08:29:00Z</time>
      </trkpt>
      <trkpt lat="45.42247" lon="5.93415">
        <ele>1621.4</ele>
        <time>2013-08-22T08:29:13Z</time>
      </trkpt>
      <trkpt lat="45.4224" lon="5.93401">
        <ele>1621.88</ele>
        <time>2013-08-22T08:29:28Z</time>
      </trkpt>
      <trkpt lat="45.42231" lon="5.93402">
        <ele>1628.61</ele>
        <time>2013-08-22T08:29:46Z</time>
      </trkpt>
      <trkpt lat="45.42221" lon="5.93402">
        <ele>1631.49</ele>
        <time>2013-08-22T08:30:00Z</time>
      </trkpt>
      <trkpt lat="45.42214" lon="5.9339">
        <ele>1626.21</ele>
        <time>2013-08-22T08:30:12Z</time>
      </trkpt>
      <trkpt lat="45.42207" lon="5.93383">
        <ele>1627.17</ele>
        <time>2013-08-22T08:30:25Z</time>
      </trkpt>
      <trkpt lat="45.422" lon="5.93384">
        <ele>1629.09</ele>
        <time>2013-08-22T08:30:38Z</time>
      </trkpt>
      <trkpt lat="45.42192" lon="5.93385">
        <ele>1630.05</ele>
        <time>2013-08-22T08:30:51Z</time>
      </trkpt>
      <trkpt lat="45.42185" lon="5.93389">
        <ele>1632.46</ele>
        <time>2013-08-22T08:31:06Z</time>
      </trkpt>
      <trkpt lat="45.42175" lon="5.93387">
        <ele>1633.42</ele>
        <time>2013-08-22T08:31:19Z</time>
      </trkpt>
      <trkpt lat="45.42167" lon="5.93393">
        <ele>1635.82</ele>
        <time>2013-08-22T08:31:31Z</time>
      </trkpt>
      <trkpt lat="45.42158" lon="5.93389">
        <ele>1636.78</ele>
        <time>2013-08-22T08:31:42Z</time>
      </trkpt>
      <trkpt lat="45.4215" lon="5.93387">
        <ele>1636.78</ele>
        <time>2013-08-22T08:31:53Z</time>
      </trkpt>
      <trkpt lat="45.42138" lon="5.9339">
        <ele>1636.78</ele>
        <time>2013-08-22T08:32:06Z</time>
      </trkpt>
      <trkpt lat="45.42129" lon="5.93387">
        <ele>1636.3</ele>
        <time>2013-08-22T08:32:16Z</time>
      </trkpt>
      <trkpt lat="45.42118" lon="5.93384">
        <ele>1634.86</ele>
        <time>2013-08-22T08:32:29Z</time>
      </trkpt>
      <trkpt lat="45.42107" lon="5.93385">
        <ele>1634.86</ele>
        <time>2013-08-22T08:32:41Z</time>
      </trkpt>
      <trkpt lat="45.42098" lon="5.93383">
        <ele>1635.34</ele>
        <time>2013-08-22T08:32:51Z</time>
      </trkpt>
      <trkpt lat="45.42089" lon="5.9337">
        <ele>1632.94</ele>
        <time>2013-08-22T08:33:03Z</time>
      </trkpt>
      <trkpt lat="45.4208" lon="5.93365">
        <ele>1633.42</ele>
        <time>2013-08-22T08:33:18Z</time>
      </trkpt>
      <trkpt lat="45.42072" lon="5.93366">
        <ele>1634.86</ele>
        <time>2013-08-22T08:33:30Z</time>
      </trkpt>
      <trkpt lat="45.42064" lon="5.93361">
        <ele>1633.42</ele>
        <time>2013-08-22T08:33:42Z</time>
      </trkpt>
      <trkpt lat="45.42055" lon="5.93348">
        <ele>1630.05</ele>
        <time>2013-08-22T08:33:55Z</time>
      </trkpt>
      <trkpt lat="45.42046" lon="5.93339">
        <ele>1627.65</ele>
        <time>2013-08-22T08:34:08Z</time>
      </trkpt>
      <trkpt lat="45.42038" lon="5.93332">
        <ele>1627.17</ele>
        <time>2013-08-22T08:34:19Z</time>
      </trkpt>
      <trkpt lat="45.42029" lon="5.93329">
        <ele>1627.65</ele>
        <time>2013-08-22T08:34:29Z</time>
      </trkpt>
      <trkpt lat="45.4202" lon="5.93329">
        <ele>1627.65</ele>
        <time>2013-08-22T08:34:39Z</time>
      </trkpt>
      <trkpt lat="45.42012" lon="5.93335">
        <ele>1629.09</ele>
        <time>2013-08-22T08:34:51Z</time>
      </trkpt>
      <trkpt lat="45.42004" lon="5.9334">
        <ele>1631.01</ele>
        <time>2013-08-22T08:35:02Z</time>
      </trkpt>
      <trkpt lat="45.41994" lon="5.93337">
        <ele>1632.94</ele>
        <time>2013-08-22T08:35:13Z</time>
      </trkpt>
      <trkpt lat="45.41985" lon="5.93339">
        <ele>1635.34</ele>
        <time>2013-08-22T08:35:24Z</time>
      </trkpt>
      <trkpt lat="45.41975" lon="5.93337">
        <ele>1636.3</ele>
        <time>2013-08-22T08:35:46Z</time>
      </trkpt>
      <trkpt lat="45.41964" lon="5.93334">
        <ele>1637.74</ele>
        <time>2013-08-22T08:36:00Z</time>
      </trkpt>
      <trkpt lat="45.41949" lon="5.93333">
        <ele>1634.86</ele>
        <time>2013-08-22T08:36:37Z</time>
      </trkpt>
      <trkpt lat="45.41943" lon="5.93331">
        <ele>1631.98</ele>
        <time>2013-08-22T08:36:48Z</time>
      </trkpt>
      <trkpt lat="45.41935" lon="5.93327">
        <ele>1633.42</ele>
        <time>2013-08-22T08:36:59Z</time>
      </trkpt>
      <trkpt lat="45.41931" lon="5.93321">
        <ele>1634.38</ele>
        <time>2013-08-22T08:37:39Z</time>
      </trkpt>
      <trkpt lat="45.41922" lon="5.93323">
        <ele>1638.7</ele>
        <time>2013-08-22T08:38:14Z</time>
      </trkpt>
      <trkpt lat="45.41913" lon="5.93318">
        <ele>1640.63</ele>
        <time>2013-08-22T08:38:28Z</time>
      </trkpt>
      <trkpt lat="45.41904" lon="5.93318">
        <ele>1643.99</ele>
        <time>2013-08-22T08:38:44Z</time>
      </trkpt>
      <trkpt lat="45.41898" lon="5.93318">
        <ele>1644.95</ele>
        <time>2013-08-22T08:39:06Z</time>
      </trkpt>
      <trkpt lat="45.41891" lon="5.93311">
        <ele>1645.43</ele>
        <time>2013-08-22T08:39:25Z</time>
      </trkpt>
      <trkpt lat="45.41883" lon="5.9331">
        <ele>1647.36</ele>
        <time>2013-08-22T08:39:42Z</time>
      </trkpt>
      <trkpt lat="45.41875" lon="5.9331">
        <ele>1651.2</ele>
        <time>2013-08-22T08:40:04Z</time>
      </trkpt>
      <trkpt lat="45.41874" lon="5.93301">
        <ele>1655.53</ele>
        <time>2013-08-22T08:40:24Z</time>
      </trkpt>
      <trkpt lat="45.41878" lon="5.93291">
        <ele>1660.81</ele>
        <time>2013-08-22T08:40:39Z</time>
      </trkpt>
      <trkpt lat="45.41881" lon="5.93286">
        <ele>1660.81</ele>
        <time>2013-08-22T08:40:54Z</time>
      </trkpt>
      <trkpt lat="45.41876" lon="5.93274">
        <ele>1662.26</ele>
        <time>2013-08-22T08:41:09Z</time>
      </trkpt>
      <trkpt lat="45.4187" lon="5.93267">
        <ele>1661.3</ele>
        <time>2013-08-22T08:41:26Z</time>
      </trkpt>
      <trkpt lat="45.41863" lon="5.93276">
        <ele>1670.43</ele>
        <time>2013-08-22T08:41:51Z</time>
      </trkpt>
      <trkpt lat="45.41859" lon="5.93291">
        <ele>1681</ele>
        <time>2013-08-22T08:42:59Z</time>
      </trkpt>
      <trkpt lat="45.41858" lon="5.93309">
        <ele>1687.73</ele>
        <time>2013-08-22T08:43:16Z</time>
      </trkpt>
      <trkpt lat="45.41846" lon="5.93313">
        <ele>1685.81</ele>
        <time>2013-08-22T08:43:34Z</time>
      </trkpt>
      <trkpt lat="45.41841" lon="5.93304">
        <ele>1687.73</ele>
        <time>2013-08-22T08:43:49Z</time>
      </trkpt>
      <trkpt lat="45.41836" lon="5.93296">
        <ele>1691.1</ele>
        <time>2013-08-22T08:44:08Z</time>
      </trkpt>
      <trkpt lat="45.41826" lon="5.933">
        <ele>1694.94</ele>
        <time>2013-08-22T08:44:27Z</time>
      </trkpt>
      <trkpt lat="45.41819" lon="5.93289">
        <ele>1691.1</ele>
        <time>2013-08-22T08:45:24Z</time>
      </trkpt>
      <trkpt lat="45.41819" lon="5.93275">
        <ele>1688.69</ele>
        <time>2013-08-22T08:45:40Z</time>
      </trkpt>
      <trkpt lat="45.41817" lon="5.93263">
        <ele>1688.69</ele>
        <time>2013-08-22T08:46:05Z</time>
      </trkpt>
      <trkpt lat="45.41805" lon="5.93269">
        <ele>1690.62</ele>
        <time>2013-08-22T08:46:28Z</time>
      </trkpt>
      <trkpt lat="45.41796" lon="5.93281">
        <ele>1692.54</ele>
        <time>2013-08-22T08:46:54Z</time>
      </trkpt>
      <trkpt lat="45.41794" lon="5.93295">
        <ele>1695.42</ele>
        <time>2013-08-22T08:47:09Z</time>
      </trkpt>
      <trkpt lat="45.41782" lon="5.93293">
        <ele>1695.42</ele>
        <time>2013-08-22T08:47:27Z</time>
      </trkpt>
      <trkpt lat="45.41776" lon="5.93283">
        <ele>1695.9</ele>
        <time>2013-08-22T08:47:43Z</time>
      </trkpt>
      <trkpt lat="45.41775" lon="5.93274">
        <ele>1698.31</ele>
        <time>2013-08-22T08:48:00Z</time>
      </trkpt>
      <trkpt lat="45.4178" lon="5.93264">
        <ele>1700.23</ele>
        <time>2013-08-22T08:48:15Z</time>
      </trkpt>
      <trkpt lat="45.41774" lon="5.93257">
        <ele>1704.07</ele>
        <time>2013-08-22T08:48:33Z</time>
      </trkpt>
      <trkpt lat="45.41762" lon="5.93256">
        <ele>1706</ele>
        <time>2013-08-22T08:48:52Z</time>
      </trkpt>
      <trkpt lat="45.41765" lon="5.93251">
        <ele>1707.92</ele>
        <time>2013-08-22T08:49:09Z</time>
      </trkpt>
      <trkpt lat="45.41769" lon="5.93242">
        <ele>1711.76</ele>
        <time>2013-08-22T08:49:31Z</time>
      </trkpt>
      <trkpt lat="45.41773" lon="5.93229">
        <ele>1712.25</ele>
        <time>2013-08-22T08:49:46Z</time>
      </trkpt>
      <trkpt lat="45.41773" lon="5.93219">
        <ele>1718.49</ele>
        <time>2013-08-22T08:51:00Z</time>
      </trkpt>
      <trkpt lat="45.41779" lon="5.93207">
        <ele>1721.86</ele>
        <time>2013-08-22T08:52:50Z</time>
      </trkpt>
      <trkpt lat="45.41788" lon="5.93191">
        <ele>1722.82</ele>
        <time>2013-08-22T08:53:05Z</time>
      </trkpt>
      <trkpt lat="45.41791" lon="5.93177">
        <ele>1727.63</ele>
        <time>2013-08-22T08:53:29Z</time>
      </trkpt>
      <trkpt lat="45.4178" lon="5.93178">
        <ele>1727.63</ele>
        <time>2013-08-22T08:53:52Z</time>
      </trkpt>
      <trkpt lat="45.41772" lon="5.93191">
        <ele>1725.7</ele>
        <time>2013-08-22T08:54:09Z</time>
      </trkpt>
      <trkpt lat="45.41771" lon="5.93184">
        <ele>1725.22</ele>
        <time>2013-08-22T08:54:31Z</time>
      </trkpt>
      <trkpt lat="45.41774" lon="5.9317">
        <ele>1730.51</ele>
        <time>2013-08-22T08:54:48Z</time>
      </trkpt>
      <trkpt lat="45.41779" lon="5.93153">
        <ele>1732.91</ele>
        <time>2013-08-22T08:55:06Z</time>
      </trkpt>
      <trkpt lat="45.41777" lon="5.93139">
        <ele>1732.91</ele>
        <time>2013-08-22T08:55:25Z</time>
      </trkpt>
      <trkpt lat="45.41766" lon="5.93142">
        <ele>1736.76</ele>
        <time>2013-08-22T08:55:44Z</time>
      </trkpt>
      <trkpt lat="45.41767" lon="5.93126">
        <ele>1740.6</ele>
        <time>2013-08-22T08:56:04Z</time>
      </trkpt>
      <trkpt lat="45.41764" lon="5.93118">
        <ele>1744.45</ele>
        <time>2013-08-22T08:56:27Z</time>
      </trkpt>
      <trkpt lat="45.41757" lon="5.9313">
        <ele>1745.41</ele>
        <time>2013-08-22T08:56:47Z</time>
      </trkpt>
      <trkpt lat="45.41751" lon="5.93133">
        <ele>1749.74</ele>
        <time>2013-08-22T08:57:18Z</time>
      </trkpt>
      <trkpt lat="45.41751" lon="5.93119">
        <ele>1752.14</ele>
        <time>2013-08-22T08:57:28Z</time>
      </trkpt>
      <trkpt lat="45.4175" lon="5.93116">
        <ele>1756.95</ele>
        <time>2013-08-22T08:57:53Z</time>
      </trkpt>
      <trkpt lat="45.41752" lon="5.93128">
        <ele>1754.06</ele>
        <time>2013-08-22T08:58:06Z</time>
      </trkpt>
      <trkpt lat="45.41753" lon="5.93138">
        <ele>1752.14</ele>
        <time>2013-08-22T08:58:19Z</time>
      </trkpt>
      <trkpt lat="45.41758" lon="5.93127">
        <ele>1752.62</ele>
        <time>2013-08-22T08:58:29Z</time>
      </trkpt>
      <trkpt lat="45.41766" lon="5.9312">
        <ele>1751.66</ele>
        <time>2013-08-22T08:58:42Z</time>
      </trkpt>
      <trkpt lat="45.41773" lon="5.93113">
        <ele>1751.66</ele>
        <time>2013-08-22T08:59:05Z</time>
      </trkpt>
      <trkpt lat="45.41781" lon="5.93107">
        <ele>1749.74</ele>
        <time>2013-08-22T08:59:19Z</time>
      </trkpt>
      <trkpt lat="45.41774" lon="5.93116">
        <ele>1750.7</ele>
        <time>2013-08-22T08:59:44Z</time>
      </trkpt>
      <trkpt lat="45.41769" lon="5.93124">
        <ele>1755.02</ele>
        <time>2013-08-22T09:00:23Z</time>
      </trkpt>
      <trkpt lat="45.41763" lon="5.9312">
        <ele>1752.14</ele>
        <time>2013-08-22T09:01:47Z</time>
      </trkpt>
      <trkpt lat="45.41758" lon="5.93131">
        <ele>1754.06</ele>
        <time>2013-08-22T09:02:02Z</time>
      </trkpt>
      <trkpt lat="45.41751" lon="5.93134">
        <ele>1753.58</ele>
        <time>2013-08-22T09:02:17Z</time>
      </trkpt>
      <trkpt lat="45.41756" lon="5.93123">
        <ele>1754.54</ele>
        <time>2013-08-22T09:02:38Z</time>
      </trkpt>
      <trkpt lat="45.41748" lon="5.93113">
        <ele>1757.43</ele>
        <time>2013-08-22T09:02:54Z</time>
      </trkpt>
      <trkpt lat="45.41739" lon="5.93102">
        <ele>1762.71</ele>
        <time>2013-08-22T09:03:08Z</time>
      </trkpt>
      <trkpt lat="45.41737" lon="5.9309">
        <ele>1765.6</ele>
        <time>2013-08-22T09:03:23Z</time>
      </trkpt>
      <trkpt lat="45.41734" lon="5.9308">
        <ele>1763.2</ele>
        <time>2013-08-22T09:03:37Z</time>
      </trkpt>
      <trkpt lat="45.41734" lon="5.93067">
        <ele>1766.56</ele>
        <time>2013-08-22T09:03:49Z</time>
      </trkpt>
      <trkpt lat="45.4173" lon="5.93055">
        <ele>1768.96</ele>
        <time>2013-08-22T09:04:01Z</time>
      </trkpt>
      <trkpt lat="45.4173" lon="5.9304">
        <ele>1771.85</ele>
        <time>2013-08-22T09:04:18Z</time>
      </trkpt>
      <trkpt lat="45.41736" lon="5.93029">
        <ele>1768.96</ele>
        <time>2013-08-22T09:04:33Z</time>
      </trkpt>
      <trkpt lat="45.41739" lon="5.93016">
        <ele>1768.48</ele>
        <time>2013-08-22T09:04:44Z</time>
      </trkpt>
      <trkpt lat="45.41738" lon="5.93003">
        <ele>1768</ele>
        <time>2013-08-22T09:04:54Z</time>
      </trkpt>
      <trkpt lat="45.41737" lon="5.92988">
        <ele>1767.04</ele>
        <time>2013-08-22T09:05:07Z</time>
      </trkpt>
      <trkpt lat="45.41731" lon="5.92976">
        <ele>1768</ele>
        <time>2013-08-22T09:05:16Z</time>
      </trkpt>
      <trkpt lat="45.41726" lon="5.92963">
        <ele>1769.44</ele>
        <time>2013-08-22T09:05:27Z</time>
      </trkpt>
      <trkpt lat="45.41725" lon="5.9295">
        <ele>1770.89</ele>
        <time>2013-08-22T09:05:39Z</time>
      </trkpt>
      <trkpt lat="45.41723" lon="5.92939">
        <ele>1774.25</ele>
        <time>2013-08-22T09:05:53Z</time>
      </trkpt>
      <trkpt lat="45.41723" lon="5.92926">
        <ele>1776.17</ele>
        <time>2013-08-22T09:06:04Z</time>
      </trkpt>
      <trkpt lat="45.4172" lon="5.92917">
        <ele>1777.13</ele>
        <time>2013-08-22T09:06:36Z</time>
      </trkpt>
      <trkpt lat="45.41722" lon="5.92931">
        <ele>1782.9</ele>
        <time>2013-08-22T09:07:12Z</time>
      </trkpt>
      <trkpt lat="45.41723" lon="5.92945">
        <ele>1782.9</ele>
        <time>2013-08-22T09:07:21Z</time>
      </trkpt>
      <trkpt lat="45.41723" lon="5.92957">
        <ele>1779.54</ele>
        <time>2013-08-22T09:07:32Z</time>
      </trkpt>
      <trkpt lat="45.41728" lon="5.92969">
        <ele>1777.13</ele>
        <time>2013-08-22T09:07:42Z</time>
      </trkpt>
      <trkpt lat="45.41732" lon="5.92973">
        <ele>1776.65</ele>
        <time>2013-08-22T09:07:55Z</time>
      </trkpt>
      <trkpt lat="45.41741" lon="5.92973">
        <ele>1779.06</ele>
        <time>2013-08-22T09:08:06Z</time>
      </trkpt>
      <trkpt lat="45.41742" lon="5.92973">
        <ele>1778.1</ele>
        <time>2013-08-22T09:08:23Z</time>
      </trkpt>
      <trkpt lat="45.41735" lon="5.92981">
        <ele>1774.25</ele>
        <time>2013-08-22T09:08:37Z</time>
      </trkpt>
      <trkpt lat="45.41737" lon="5.92995">
        <ele>1772.33</ele>
        <time>2013-08-22T09:08:45Z</time>
      </trkpt>
      <trkpt lat="45.41742" lon="5.93006">
        <ele>1772.33</ele>
        <time>2013-08-22T09:08:53Z</time>
      </trkpt>
      <trkpt lat="45.4175" lon="5.93017">
        <ele>1773.77</ele>
        <time>2013-08-22T09:09:06Z</time>
      </trkpt>
      <trkpt lat="45.41758" lon="5.93025">
        <ele>1777.61</ele>
        <time>2013-08-22T09:09:22Z</time>
      </trkpt>
      <trkpt lat="45.41761" lon="5.93028">
        <ele>1783.38</ele>
        <time>2013-08-22T09:09:52Z</time>
      </trkpt>
      <trkpt lat="45.41752" lon="5.93016">
        <ele>1780.02</ele>
        <time>2013-08-22T09:10:07Z</time>
      </trkpt>
      <trkpt lat="45.41744" lon="5.93009">
        <ele>1780.5</ele>
        <time>2013-08-22T09:10:18Z</time>
      </trkpt>
      <trkpt lat="45.41737" lon="5.93013">
        <ele>1778.58</ele>
        <time>2013-08-22T09:10:29Z</time>
      </trkpt>
      <trkpt lat="45.41733" lon="5.93026">
        <ele>1777.13</ele>
        <time>2013-08-22T09:10:40Z</time>
      </trkpt>
      <trkpt lat="45.41731" lon="5.9304">
        <ele>1775.69</ele>
        <time>2013-08-22T09:10:51Z</time>
      </trkpt>
      <trkpt lat="45.41729" lon="5.93054">
        <ele>1773.77</ele>
        <time>2013-08-22T09:11:02Z</time>
      </trkpt>
      <trkpt lat="45.41731" lon="5.9307">
        <ele>1770.41</ele>
        <time>2013-08-22T09:11:13Z</time>
      </trkpt>
      <trkpt lat="45.41733" lon="5.93084">
        <ele>1770.89</ele>
        <time>2013-08-22T09:11:24Z</time>
      </trkpt>
      <trkpt lat="45.41735" lon="5.93097">
        <ele>1770.41</ele>
        <time>2013-08-22T09:11:42Z</time>
      </trkpt>
      <trkpt lat="45.41738" lon="5.93106">
        <ele>1769.44</ele>
        <time>2013-08-22T09:11:53Z</time>
      </trkpt>
      <trkpt lat="45.41745" lon="5.93115">
        <ele>1766.56</ele>
        <time>2013-08-22T09:12:07Z</time>
      </trkpt>
      <trkpt lat="45.41751" lon="5.93126">
        <ele>1765.12</ele>
        <time>2013-08-22T09:12:21Z</time>
      </trkpt>
      <trkpt lat="45.4175" lon="5.93138">
        <ele>1760.79</ele>
        <time>2013-08-22T09:12:37Z</time>
      </trkpt>
      <trkpt lat="45.41753" lon="5.93132">
        <ele>1755.99</ele>
        <time>2013-08-22T09:12:47Z</time>
      </trkpt>
      <trkpt lat="45.41762" lon="5.93123">
        <ele>1754.06</ele>
        <time>2013-08-22T09:12:55Z</time>
      </trkpt>
      <trkpt lat="45.41766" lon="5.93134">
        <ele>1751.18</ele>
        <time>2013-08-22T09:13:06Z</time>
      </trkpt>
      <trkpt lat="45.41768" lon="5.93149">
        <ele>1748.29</ele>
        <time>2013-08-22T09:13:17Z</time>
      </trkpt>
      <trkpt lat="45.41774" lon="5.93144">
        <ele>1744.45</ele>
        <time>2013-08-22T09:13:28Z</time>
      </trkpt>
      <trkpt lat="45.41775" lon="5.93158">
        <ele>1742.05</ele>
        <time>2013-08-22T09:13:37Z</time>
      </trkpt>
      <trkpt lat="45.41774" lon="5.93174">
        <ele>1739.16</ele>
        <time>2013-08-22T09:13:46Z</time>
      </trkpt>
      <trkpt lat="45.41769" lon="5.93188">
        <ele>1738.2</ele>
        <time>2013-08-22T09:13:54Z</time>
      </trkpt>
      <trkpt lat="45.41766" lon="5.93198">
        <ele>1733.88</ele>
        <time>2013-08-22T09:14:13Z</time>
      </trkpt>
      <trkpt lat="45.41775" lon="5.93186">
        <ele>1732.43</ele>
        <time>2013-08-22T09:14:25Z</time>
      </trkpt>
      <trkpt lat="45.41783" lon="5.93176">
        <ele>1730.99</ele>
        <time>2013-08-22T09:14:34Z</time>
      </trkpt>
      <trkpt lat="45.41783" lon="5.9317">
        <ele>1732.91</ele>
        <time>2013-08-22T09:15:05Z</time>
      </trkpt>
      <trkpt lat="45.41787" lon="5.93161">
        <ele>1732.43</ele>
        <time>2013-08-22T09:15:23Z</time>
      </trkpt>
      <trkpt lat="45.41783" lon="5.93169">
        <ele>1730.99</ele>
        <time>2013-08-22T09:16:46Z</time>
      </trkpt>
      <trkpt lat="45.41783" lon="5.93156">
        <ele>1729.07</ele>
        <time>2013-08-22T09:16:59Z</time>
      </trkpt>
      <trkpt lat="45.41788" lon="5.93138">
        <ele>1729.07</ele>
        <time>2013-08-22T09:17:17Z</time>
      </trkpt>
      <trkpt lat="45.41793" lon="5.93121">
        <ele>1728.59</ele>
        <time>2013-08-22T09:17:35Z</time>
      </trkpt>
      <trkpt lat="45.41794" lon="5.93108">
        <ele>1729.07</ele>
        <time>2013-08-22T09:17:47Z</time>
      </trkpt>
      <trkpt lat="45.41795" lon="5.93096">
        <ele>1728.59</ele>
        <time>2013-08-22T09:18:04Z</time>
      </trkpt>
      <trkpt lat="45.41796" lon="5.93085">
        <ele>1736.28</ele>
        <time>2013-08-22T09:19:02Z</time>
      </trkpt>
      <trkpt lat="45.41798" lon="5.93072">
        <ele>1743.49</ele>
        <time>2013-08-22T09:19:25Z</time>
      </trkpt>
      <trkpt lat="45.41798" lon="5.93056">
        <ele>1746.37</ele>
        <time>2013-08-22T09:19:41Z</time>
      </trkpt>
      <trkpt lat="45.41806" lon="5.93059">
        <ele>1748.29</ele>
        <time>2013-08-22T09:19:52Z</time>
      </trkpt>
      <trkpt lat="45.41815" lon="5.9306">
        <ele>1750.7</ele>
        <time>2013-08-22T09:20:15Z</time>
      </trkpt>
      <trkpt lat="45.41825" lon="5.93061">
        <ele>1752.14</ele>
        <time>2013-08-22T09:20:49Z</time>
      </trkpt>
      <trkpt lat="45.41831" lon="5.93061">
        <ele>1754.54</ele>
        <time>2013-08-22T09:21:04Z</time>
      </trkpt>
      <trkpt lat="45.41837" lon="5.93063">
        <ele>1753.58</ele>
        <time>2013-08-22T09:21:21Z</time>
      </trkpt>
      <trkpt lat="45.41848" lon="5.93068">
        <ele>1755.99</ele>
        <time>2013-08-22T09:22:02Z</time>
      </trkpt>
      <trkpt lat="45.41857" lon="5.93067">
        <ele>1760.79</ele>
        <time>2013-08-22T09:22:28Z</time>
      </trkpt>
      <trkpt lat="45.41867" lon="5.93073">
        <ele>1768.48</ele>
        <time>2013-08-22T09:22:44Z</time>
      </trkpt>
      <trkpt lat="45.41875" lon="5.93078">
        <ele>1773.77</ele>
        <time>2013-08-22T09:22:59Z</time>
      </trkpt>
      <trkpt lat="45.41886" lon="5.93081">
        <ele>1780.5</ele>
        <time>2013-08-22T09:23:20Z</time>
      </trkpt>
      <trkpt lat="45.41893" lon="5.93087">
        <ele>1783.86</ele>
        <time>2013-08-22T09:23:32Z</time>
      </trkpt>
      <trkpt lat="45.41898" lon="5.93097">
        <ele>1787.23</ele>
        <time>2013-08-22T09:23:45Z</time>
      </trkpt>
      <trkpt lat="45.41908" lon="5.93103">
        <ele>1790.59</ele>
        <time>2013-08-22T09:24:00Z</time>
      </trkpt>
      <trkpt lat="45.41917" lon="5.9311">
        <ele>1781.46</ele>
        <time>2013-08-22T09:24:28Z</time>
      </trkpt>
      <trkpt lat="45.41924" lon="5.93122">
        <ele>1780.02</ele>
        <time>2013-08-22T09:24:39Z</time>
      </trkpt>
      <trkpt lat="45.41932" lon="5.93131">
        <ele>1779.54</ele>
        <time>2013-08-22T09:24:50Z</time>
      </trkpt>
      <trkpt lat="45.41938" lon="5.93141">
        <ele>1780.98</ele>
        <time>2013-08-22T09:25:02Z</time>
      </trkpt>
      <trkpt lat="45.41944" lon="5.93154">
        <ele>1780.5</ele>
        <time>2013-08-22T09:25:14Z</time>
      </trkpt>
      <trkpt lat="45.41958" lon="5.93159">
        <ele>1770.41</ele>
        <time>2013-08-22T09:25:57Z</time>
      </trkpt>
      <trkpt lat="45.41966" lon="5.93149">
        <ele>1767.52</ele>
        <time>2013-08-22T09:26:09Z</time>
      </trkpt>
      <trkpt lat="45.41972" lon="5.93137">
        <ele>1766.56</ele>
        <time>2013-08-22T09:26:22Z</time>
      </trkpt>
      <trkpt lat="45.41979" lon="5.9313">
        <ele>1767.04</ele>
        <time>2013-08-22T09:26:35Z</time>
      </trkpt>
      <trkpt lat="45.41987" lon="5.93124">
        <ele>1767.04</ele>
        <time>2013-08-22T09:26:48Z</time>
      </trkpt>
      <trkpt lat="45.41995" lon="5.93117">
        <ele>1765.6</ele>
        <time>2013-08-22T09:26:59Z</time>
      </trkpt>
      <trkpt lat="45.42004" lon="5.93114">
        <ele>1765.6</ele>
        <time>2013-08-22T09:27:12Z</time>
      </trkpt>
      <trkpt lat="45.42013" lon="5.93113">
        <ele>1765.12</ele>
        <time>2013-08-22T09:27:23Z</time>
      </trkpt>
      <trkpt lat="45.42023" lon="5.93112">
        <ele>1765.6</ele>
        <time>2013-08-22T09:27:35Z</time>
      </trkpt>
      <trkpt lat="45.42032" lon="5.9311">
        <ele>1765.12</ele>
        <time>2013-08-22T09:27:56Z</time>
      </trkpt>
      <trkpt lat="45.42042" lon="5.93106">
        <ele>1763.68</ele>
        <time>2013-08-22T09:28:07Z</time>
      </trkpt>
      <trkpt lat="45.42051" lon="5.93101">
        <ele>1761.75</ele>
        <time>2013-08-22T09:28:19Z</time>
      </trkpt>
      <trkpt lat="45.42059" lon="5.93099">
        <ele>1761.27</ele>
        <time>2013-08-22T09:28:32Z</time>
      </trkpt>
      <trkpt lat="45.42067" lon="5.93103">
        <ele>1762.71</ele>
        <time>2013-08-22T09:28:43Z</time>
      </trkpt>
      <trkpt lat="45.42075" lon="5.9311">
        <ele>1765.6</ele>
        <time>2013-08-22T09:28:53Z</time>
      </trkpt>
      <trkpt lat="45.42084" lon="5.93113">
        <ele>1768.48</ele>
        <time>2013-08-22T09:29:06Z</time>
      </trkpt>
      <trkpt lat="45.42094" lon="5.93118">
        <ele>1770.41</ele>
        <time>2013-08-22T09:29:17Z</time>
      </trkpt>
      <trkpt lat="45.42102" lon="5.93126">
        <ele>1772.81</ele>
        <time>2013-08-22T09:29:28Z</time>
      </trkpt>
      <trkpt lat="45.4211" lon="5.93135">
        <ele>1776.17</ele>
        <time>2013-08-22T09:29:41Z</time>
      </trkpt>
      <trkpt lat="45.42114" lon="5.93148">
        <ele>1778.58</ele>
        <time>2013-08-22T09:29:55Z</time>
      </trkpt>
      <trkpt lat="45.4212" lon="5.9316">
        <ele>1778.58</ele>
        <time>2013-08-22T09:30:09Z</time>
      </trkpt>
      <trkpt lat="45.42126" lon="5.93172">
        <ele>1779.06</ele>
        <time>2013-08-22T09:30:22Z</time>
      </trkpt>
      <trkpt lat="45.42136" lon="5.9318">
        <ele>1771.85</ele>
        <time>2013-08-22T09:30:37Z</time>
      </trkpt>
      <trkpt lat="45.42145" lon="5.93175">
        <ele>1766.56</ele>
        <time>2013-08-22T09:30:53Z</time>
      </trkpt>
      <trkpt lat="45.42153" lon="5.93166">
        <ele>1764.16</ele>
        <time>2013-08-22T09:31:09Z</time>
      </trkpt>
      <trkpt lat="45.42159" lon="5.93156">
        <ele>1761.75</ele>
        <time>2013-08-22T09:31:38Z</time>
      </trkpt>
      <trkpt lat="45.42165" lon="5.9315">
        <ele>1766.56</ele>
        <time>2013-08-22T09:31:53Z</time>
      </trkpt>
      <trkpt lat="45.42172" lon="5.93143">
        <ele>1769.44</ele>
        <time>2013-08-22T09:32:15Z</time>
      </trkpt>
      <trkpt lat="45.42181" lon="5.93132">
        <ele>1771.85</ele>
        <time>2013-08-22T09:32:40Z</time>
      </trkpt>
      <trkpt lat="45.42187" lon="5.93121">
        <ele>1771.37</ele>
        <time>2013-08-22T09:32:56Z</time>
      </trkpt>
      <trkpt lat="45.42194" lon="5.93105">
        <ele>1768.48</ele>
        <time>2013-08-22T09:33:08Z</time>
      </trkpt>
      <trkpt lat="45.422" lon="5.93089">
        <ele>1763.2</ele>
        <time>2013-08-22T09:33:23Z</time>
      </trkpt>
      <trkpt lat="45.42209" lon="5.9308">
        <ele>1760.79</ele>
        <time>2013-08-22T09:33:35Z</time>
      </trkpt>
      <trkpt lat="45.4222" lon="5.93072">
        <ele>1758.39</ele>
        <time>2013-08-22T09:33:47Z</time>
      </trkpt>
      <trkpt lat="45.4223" lon="5.93067">
        <ele>1755.5</ele>
        <time>2013-08-22T09:34:01Z</time>
      </trkpt>
      <trkpt lat="45.42237" lon="5.9306">
        <ele>1752.14</ele>
        <time>2013-08-22T09:34:18Z</time>
      </trkpt>
      <trkpt lat="45.42243" lon="5.93052">
        <ele>1751.18</ele>
        <time>2013-08-22T09:34:38Z</time>
      </trkpt>
      <trkpt lat="45.42249" lon="5.93043">
        <ele>1749.26</ele>
        <time>2013-08-22T09:34:55Z</time>
      </trkpt>
      <trkpt lat="45.42251" lon="5.93032">
        <ele>1747.81</ele>
        <time>2013-08-22T09:35:14Z</time>
      </trkpt>
      <trkpt lat="45.42256" lon="5.93025">
        <ele>1748.29</ele>
        <time>2013-08-22T09:35:37Z</time>
      </trkpt>
      <trkpt lat="45.42266" lon="5.93025">
        <ele>1745.89</ele>
        <time>2013-08-22T09:35:52Z</time>
      </trkpt>
      <trkpt lat="45.42276" lon="5.9303">
        <ele>1745.89</ele>
        <time>2013-08-22T09:36:06Z</time>
      </trkpt>
      <trkpt lat="45.42286" lon="5.93035">
        <ele>1746.37</ele>
        <time>2013-08-22T09:36:20Z</time>
      </trkpt>
      <trkpt lat="45.42294" lon="5.9304">
        <ele>1745.89</ele>
        <time>2013-08-22T09:36:32Z</time>
      </trkpt>
      <trkpt lat="45.42303" lon="5.93039">
        <ele>1744.93</ele>
        <time>2013-08-22T09:36:50Z</time>
      </trkpt>
      <trkpt lat="45.42313" lon="5.93047">
        <ele>1742.53</ele>
        <time>2013-08-22T09:37:01Z</time>
      </trkpt>
      <trkpt lat="45.42318" lon="5.93058">
        <ele>1740.12</ele>
        <time>2013-08-22T09:37:12Z</time>
      </trkpt>
      <trkpt lat="45.4232" lon="5.93072">
        <ele>1740.12</ele>
        <time>2013-08-22T09:37:23Z</time>
      </trkpt>
      <trkpt lat="45.42321" lon="5.93085">
        <ele>1741.57</ele>
        <time>2013-08-22T09:37:33Z</time>
      </trkpt>
      <trkpt lat="45.4232" lon="5.93097">
        <ele>1743.97</ele>
        <time>2013-08-22T09:37:45Z</time>
      </trkpt>
      <trkpt lat="45.42325" lon="5.93111">
        <ele>1743.97</ele>
        <time>2013-08-22T09:37:58Z</time>
      </trkpt>
      <trkpt lat="45.4233" lon="5.93121">
        <ele>1746.85</ele>
        <time>2013-08-22T09:38:12Z</time>
      </trkpt>
      <trkpt lat="45.42336" lon="5.93131">
        <ele>1749.26</ele>
        <time>2013-08-22T09:38:26Z</time>
      </trkpt>
      <trkpt lat="45.42345" lon="5.93136">
        <ele>1750.22</ele>
        <time>2013-08-22T09:38:40Z</time>
      </trkpt>
      <trkpt lat="45.42351" lon="5.93144">
        <ele>1750.7</ele>
        <time>2013-08-22T09:38:55Z</time>
      </trkpt>
      <trkpt lat="45.42353" lon="5.93157">
        <ele>1750.22</ele>
        <time>2013-08-22T09:39:09Z</time>
      </trkpt>
      <trkpt lat="45.42355" lon="5.93171">
        <ele>1749.74</ele>
        <time>2013-08-22T09:39:27Z</time>
      </trkpt>
      <trkpt lat="45.42358" lon="5.93179">
        <ele>1752.14</ele>
        <time>2013-08-22T09:39:49Z</time>
      </trkpt>
      <trkpt lat="45.42362" lon="5.93192">
        <ele>1754.06</ele>
        <time>2013-08-22T09:40:06Z</time>
      </trkpt>
      <trkpt lat="45.42369" lon="5.932">
        <ele>1760.31</ele>
        <time>2013-08-22T09:40:34Z</time>
      </trkpt>
      <trkpt lat="45.42376" lon="5.93207">
        <ele>1765.6</ele>
        <time>2013-08-22T09:41:05Z</time>
      </trkpt>
      <trkpt lat="45.42384" lon="5.93213">
        <ele>1767.04</ele>
        <time>2013-08-22T09:41:21Z</time>
      </trkpt>
      <trkpt lat="45.42388" lon="5.93225">
        <ele>1766.56</ele>
        <time>2013-08-22T09:41:38Z</time>
      </trkpt>
      <trkpt lat="45.42393" lon="5.93237">
        <ele>1766.08</ele>
        <time>2013-08-22T09:41:50Z</time>
      </trkpt>
      <trkpt lat="45.42401" lon="5.93244">
        <ele>1771.37</ele>
        <time>2013-08-22T09:42:03Z</time>
      </trkpt>
      <trkpt lat="45.42408" lon="5.93244">
        <ele>1766.08</ele>
        <time>2013-08-22T09:44:10Z</time>
      </trkpt>
      <trkpt lat="45.42417" lon="5.93248">
        <ele>1768</ele>
        <time>2013-08-22T09:44:24Z</time>
      </trkpt>
      <trkpt lat="45.42427" lon="5.93251">
        <ele>1768.96</ele>
        <time>2013-08-22T09:44:38Z</time>
      </trkpt>
      <trkpt lat="45.42437" lon="5.93258">
        <ele>1769.44</ele>
        <time>2013-08-22T09:44:51Z</time>
      </trkpt>
      <trkpt lat="45.42446" lon="5.93262">
        <ele>1768.96</ele>
        <time>2013-08-22T09:45:05Z</time>
      </trkpt>
      <trkpt lat="45.42455" lon="5.93268">
        <ele>1769.44</ele>
        <time>2013-08-22T09:45:18Z</time>
      </trkpt>
      <trkpt lat="45.42464" lon="5.93272">
        <ele>1767.04</ele>
        <time>2013-08-22T09:45:30Z</time>
      </trkpt>
      <trkpt lat="45.42474" lon="5.93274">
        <ele>1766.56</ele>
        <time>2013-08-22T09:45:42Z</time>
      </trkpt>
      <trkpt lat="45.42484" lon="5.93274">
        <ele>1768</ele>
        <time>2013-08-22T09:45:55Z</time>
      </trkpt>
      <trkpt lat="45.42493" lon="5.9328">
        <ele>1768.96</ele>
        <time>2013-08-22T09:46:08Z</time>
      </trkpt>
      <trkpt lat="45.42498" lon="5.93289">
        <ele>1769.92</ele>
        <time>2013-08-22T09:46:29Z</time>
      </trkpt>
      <trkpt lat="45.42508" lon="5.93294">
        <ele>1769.92</ele>
        <time>2013-08-22T09:46:41Z</time>
      </trkpt>
      <trkpt lat="45.42517" lon="5.93299">
        <ele>1768.96</ele>
        <time>2013-08-22T09:47:07Z</time>
      </trkpt>
      <trkpt lat="45.42525" lon="5.93306">
        <ele>1770.89</ele>
        <time>2013-08-22T09:47:21Z</time>
      </trkpt>
      <trkpt lat="45.42533" lon="5.93316">
        <ele>1773.29</ele>
        <time>2013-08-22T09:47:36Z</time>
      </trkpt>
      <trkpt lat="45.42541" lon="5.93325">
        <ele>1774.25</ele>
        <time>2013-08-22T09:47:50Z</time>
      </trkpt>
      <trkpt lat="45.42549" lon="5.93332">
        <ele>1774.73</ele>
        <time>2013-08-22T09:48:03Z</time>
      </trkpt>
      <trkpt lat="45.42556" lon="5.93342">
        <ele>1774.73</ele>
        <time>2013-08-22T09:48:17Z</time>
      </trkpt>
      <trkpt lat="45.42564" lon="5.93352">
        <ele>1775.69</ele>
        <time>2013-08-22T09:48:33Z</time>
      </trkpt>
      <trkpt lat="45.42572" lon="5.93359">
        <ele>1778.1</ele>
        <time>2013-08-22T09:48:52Z</time>
      </trkpt>
      <trkpt lat="45.42579" lon="5.93368">
        <ele>1776.65</ele>
        <time>2013-08-22T09:49:06Z</time>
      </trkpt>
      <trkpt lat="45.42586" lon="5.93375">
        <ele>1780.5</ele>
        <time>2013-08-22T09:49:19Z</time>
      </trkpt>
      <trkpt lat="45.42595" lon="5.93383">
        <ele>1781.94</ele>
        <time>2013-08-22T09:49:37Z</time>
      </trkpt>
      <trkpt lat="45.42603" lon="5.93387">
        <ele>1776.17</ele>
        <time>2013-08-22T09:49:51Z</time>
      </trkpt>
      <trkpt lat="45.42613" lon="5.9339">
        <ele>1775.69</ele>
        <time>2013-08-22T09:50:03Z</time>
      </trkpt>
      <trkpt lat="45.42622" lon="5.93396">
        <ele>1777.13</ele>
        <time>2013-08-22T09:50:16Z</time>
      </trkpt>
      <trkpt lat="45.42629" lon="5.93402">
        <ele>1779.54</ele>
        <time>2013-08-22T09:50:29Z</time>
      </trkpt>
      <trkpt lat="45.42639" lon="5.93408">
        <ele>1782.42</ele>
        <time>2013-08-22T09:50:41Z</time>
      </trkpt>
      <trkpt lat="45.42648" lon="5.93414">
        <ele>1782.9</ele>
        <time>2013-08-22T09:50:54Z</time>
      </trkpt>
      <trkpt lat="45.42656" lon="5.93421">
        <ele>1783.38</ele>
        <time>2013-08-22T09:51:06Z</time>
      </trkpt>
      <trkpt lat="45.42666" lon="5.93428">
        <ele>1785.79</ele>
        <time>2013-08-22T09:51:19Z</time>
      </trkpt>
      <trkpt lat="45.42672" lon="5.93439">
        <ele>1788.19</ele>
        <time>2013-08-22T09:51:34Z</time>
      </trkpt>
      <trkpt lat="45.42683" lon="5.93443">
        <ele>1787.71</ele>
        <time>2013-08-22T09:51:48Z</time>
      </trkpt>
      <trkpt lat="45.42691" lon="5.93449">
        <ele>1786.27</ele>
        <time>2013-08-22T09:52:00Z</time>
      </trkpt>
      <trkpt lat="45.42698" lon="5.93458">
        <ele>1787.71</ele>
        <time>2013-08-22T09:52:14Z</time>
      </trkpt>
      <trkpt lat="45.42708" lon="5.93461">
        <ele>1786.27</ele>
        <time>2013-08-22T09:52:28Z</time>
      </trkpt>
      <trkpt lat="45.42718" lon="5.93463">
        <ele>1785.79</ele>
        <time>2013-08-22T09:52:40Z</time>
      </trkpt>
      <trkpt lat="45.42726" lon="5.93471">
        <ele>1786.75</ele>
        <time>2013-08-22T09:52:57Z</time>
      </trkpt>
      <trkpt lat="45.4273" lon="5.93469">
        <ele>1780.98</ele>
        <time>2013-08-22T09:55:04Z</time>
      </trkpt>
      <trkpt lat="45.42739" lon="5.93471">
        <ele>1782.9</ele>
        <time>2013-08-22T09:55:24Z</time>
      </trkpt>
      <trkpt lat="45.42749" lon="5.93476">
        <ele>1785.31</ele>
        <time>2013-08-22T09:55:38Z</time>
      </trkpt>
      <trkpt lat="45.42761" lon="5.93482">
        <ele>1786.75</ele>
        <time>2013-08-22T09:55:58Z</time>
      </trkpt>
      <trkpt lat="45.42772" lon="5.93493">
        <ele>1789.63</ele>
        <time>2013-08-22T09:56:14Z</time>
      </trkpt>
      <trkpt lat="45.42782" lon="5.93499">
        <ele>1788.67</ele>
        <time>2013-08-22T09:56:31Z</time>
      </trkpt>
      <trkpt lat="45.42793" lon="5.9351">
        <ele>1792.03</ele>
        <time>2013-08-22T09:56:59Z</time>
      </trkpt>
      <trkpt lat="45.42808" lon="5.93512">
        <ele>1793.48</ele>
        <time>2013-08-22T09:57:22Z</time>
      </trkpt>
      <trkpt lat="45.42819" lon="5.93516">
        <ele>1794.92</ele>
        <time>2013-08-22T09:57:37Z</time>
      </trkpt>
      <trkpt lat="45.42829" lon="5.9352">
        <ele>1783.86</ele>
        <time>2013-08-22T09:58:47Z</time>
      </trkpt>
      <trkpt lat="45.42836" lon="5.93528">
        <ele>1783.86</ele>
        <time>2013-08-22T09:59:01Z</time>
      </trkpt>
      <trkpt lat="45.42845" lon="5.93537">
        <ele>1788.19</ele>
        <time>2013-08-22T09:59:35Z</time>
      </trkpt>
      <trkpt lat="45.4286" lon="5.93539">
        <ele>1791.55</ele>
        <time>2013-08-22T09:59:55Z</time>
      </trkpt>
      <trkpt lat="45.42874" lon="5.93538">
        <ele>1795.4</ele>
        <time>2013-08-22T10:00:19Z</time>
      </trkpt>
      <trkpt lat="45.42883" lon="5.9354">
        <ele>1799.73</ele>
        <time>2013-08-22T10:00:41Z</time>
      </trkpt>
      <trkpt lat="45.42898" lon="5.93545">
        <ele>1807.9</ele>
        <time>2013-08-22T10:01:06Z</time>
      </trkpt>
      <trkpt lat="45.42912" lon="5.93551">
        <ele>1809.82</ele>
        <time>2013-08-22T10:01:28Z</time>
      </trkpt>
      <trkpt lat="45.42922" lon="5.93558">
        <ele>1813.18</ele>
        <time>2013-08-22T10:01:44Z</time>
      </trkpt>
      <trkpt lat="45.42929" lon="5.9357">
        <ele>1820.39</ele>
        <time>2013-08-22T10:01:59Z</time>
      </trkpt>
      <trkpt lat="45.42938" lon="5.93579">
        <ele>1829.05</ele>
        <time>2013-08-22T10:02:21Z</time>
      </trkpt>
      <trkpt lat="45.42949" lon="5.93585">
        <ele>1808.86</ele>
        <time>2013-08-22T10:02:38Z</time>
      </trkpt>
      <trkpt lat="45.4296" lon="5.93592">
        <ele>1805.97</ele>
        <time>2013-08-22T10:02:52Z</time>
      </trkpt>
      <trkpt lat="45.42972" lon="5.93597">
        <ele>1794.92</ele>
        <time>2013-08-22T10:03:10Z</time>
      </trkpt>
      <trkpt lat="45.42986" lon="5.93603">
        <ele>1785.79</ele>
        <time>2013-08-22T10:03:31Z</time>
      </trkpt>
      <trkpt lat="45.42999" lon="5.9361">
        <ele>1789.63</ele>
        <time>2013-08-22T10:03:49Z</time>
      </trkpt>
      <trkpt lat="45.4301" lon="5.93616">
        <ele>1789.63</ele>
        <time>2013-08-22T10:04:04Z</time>
      </trkpt>
      <trkpt lat="45.43026" lon="5.93621">
        <ele>1791.07</ele>
        <time>2013-08-22T10:04:23Z</time>
      </trkpt>
      <trkpt lat="45.43033" lon="5.93628">
        <ele>1803.57</ele>
        <time>2013-08-22T10:04:46Z</time>
      </trkpt>
      <trkpt lat="45.43045" lon="5.93637">
        <ele>1807.9</ele>
        <time>2013-08-22T10:05:03Z</time>
      </trkpt>
      <trkpt lat="45.43054" lon="5.9364">
        <ele>1799.24</ele>
        <time>2013-08-22T10:05:25Z</time>
      </trkpt>
      <trkpt lat="45.43073" lon="5.93641">
        <ele>1787.71</ele>
        <time>2013-08-22T10:05:57Z</time>
      </trkpt>
      <trkpt lat="45.4308" lon="5.9365">
        <ele>1792.52</ele>
        <time>2013-08-22T10:06:20Z</time>
      </trkpt>
      <trkpt lat="45.43087" lon="5.93662">
        <ele>1796.84</ele>
        <time>2013-08-22T10:06:41Z</time>
      </trkpt>
      <trkpt lat="45.43097" lon="5.93676">
        <ele>1784.34</ele>
        <time>2013-08-22T10:08:09Z</time>
      </trkpt>
      <trkpt lat="45.43105" lon="5.93688">
        <ele>1786.75</ele>
        <time>2013-08-22T10:08:25Z</time>
      </trkpt>
      <trkpt lat="45.43115" lon="5.93697">
        <ele>1803.57</ele>
        <time>2013-08-22T10:08:49Z</time>
      </trkpt>
      <trkpt lat="45.43131" lon="5.93709">
        <ele>1799.73</ele>
        <time>2013-08-22T10:09:14Z</time>
      </trkpt>
      <trkpt lat="45.43144" lon="5.93707">
        <ele>1796.84</ele>
        <time>2013-08-22T10:09:32Z</time>
      </trkpt>
      <trkpt lat="45.43162" lon="5.93709">
        <ele>1793.48</ele>
        <time>2013-08-22T10:09:48Z</time>
      </trkpt>
      <trkpt lat="45.43174" lon="5.93711">
        <ele>1792.03</ele>
        <time>2013-08-22T10:10:06Z</time>
      </trkpt>
      <trkpt lat="45.43183" lon="5.93718">
        <ele>1792.52</ele>
        <time>2013-08-22T10:10:25Z</time>
      </trkpt>
      <trkpt lat="45.43199" lon="5.93725">
        <ele>1794.44</ele>
        <time>2013-08-22T10:10:41Z</time>
      </trkpt>
      <trkpt lat="45.43214" lon="5.93726">
        <ele>1786.27</ele>
        <time>2013-08-22T10:10:55Z</time>
      </trkpt>
      <trkpt lat="45.43224" lon="5.93726">
        <ele>1782.9</ele>
        <time>2013-08-22T10:11:10Z</time>
      </trkpt>
      <trkpt lat="45.4323" lon="5.9374">
        <ele>1782.42</ele>
        <time>2013-08-22T10:11:23Z</time>
      </trkpt>
      <trkpt lat="45.43236" lon="5.93753">
        <ele>1785.79</ele>
        <time>2013-08-22T10:11:40Z</time>
      </trkpt>
      <trkpt lat="45.43248" lon="5.93767">
        <ele>1791.07</ele>
        <time>2013-08-22T10:12:04Z</time>
      </trkpt>
      <trkpt lat="45.43265" lon="5.9377">
        <ele>1784.34</ele>
        <time>2013-08-22T10:12:23Z</time>
      </trkpt>
      <trkpt lat="45.4327" lon="5.93783">
        <ele>1783.38</ele>
        <time>2013-08-22T10:12:41Z</time>
      </trkpt>
      <trkpt lat="45.43278" lon="5.93788">
        <ele>1788.19</ele>
        <time>2013-08-22T10:12:55Z</time>
      </trkpt>
      <trkpt lat="45.43287" lon="5.93798">
        <ele>1798.28</ele>
        <time>2013-08-22T10:13:10Z</time>
      </trkpt>
      <trkpt lat="45.43301" lon="5.93806">
        <ele>1805.49</ele>
        <time>2013-08-22T10:13:27Z</time>
      </trkpt>
      <trkpt lat="45.4332" lon="5.93811">
        <ele>1781.94</ele>
        <time>2013-08-22T10:16:39Z</time>
      </trkpt>
      <trkpt lat="45.43331" lon="5.93808">
        <ele>1782.42</ele>
        <time>2013-08-22T10:17:01Z</time>
      </trkpt>
      <trkpt lat="45.43335" lon="5.93796">
        <ele>1780.5</ele>
        <time>2013-08-22T10:17:19Z</time>
      </trkpt>
      <trkpt lat="45.43343" lon="5.93787">
        <ele>1780.02</ele>
        <time>2013-08-22T10:17:36Z</time>
      </trkpt>
      <trkpt lat="45.43347" lon="5.9377">
        <ele>1780.5</ele>
        <time>2013-08-22T10:18:37Z</time>
      </trkpt>
      <trkpt lat="45.43363" lon="5.93762">
        <ele>1782.9</ele>
        <time>2013-08-22T10:19:47Z</time>
      </trkpt>
      <trkpt lat="45.43372" lon="5.93754">
        <ele>1770.89</ele>
        <time>2013-08-22T10:20:53Z</time>
      </trkpt>
      <trkpt lat="45.43381" lon="5.93765">
        <ele>1780.5</ele>
        <time>2013-08-22T10:21:16Z</time>
      </trkpt>
      <trkpt lat="45.43387" lon="5.93778">
        <ele>1785.31</ele>
        <time>2013-08-22T10:21:31Z</time>
      </trkpt>
      <trkpt lat="45.43391" lon="5.93793">
        <ele>1793</ele>
        <time>2013-08-22T10:21:46Z</time>
      </trkpt>
      <trkpt lat="45.43398" lon="5.93808">
        <ele>1798.28</ele>
        <time>2013-08-22T10:21:58Z</time>
      </trkpt>
      <trkpt lat="45.43417" lon="5.93809">
        <ele>1782.42</ele>
        <time>2013-08-22T10:22:34Z</time>
      </trkpt>
      <trkpt lat="45.43429" lon="5.93806">
        <ele>1781.94</ele>
        <time>2013-08-22T10:23:02Z</time>
      </trkpt>
      <trkpt lat="45.4344" lon="5.93808">
        <ele>1782.9</ele>
        <time>2013-08-22T10:23:22Z</time>
      </trkpt>
      <trkpt lat="45.43451" lon="5.93816">
        <ele>1785.31</ele>
        <time>2013-08-22T10:23:41Z</time>
      </trkpt>
      <trkpt lat="45.43463" lon="5.93833">
        <ele>1799.73</ele>
        <time>2013-08-22T10:24:06Z</time>
      </trkpt>
      <trkpt lat="45.43463" lon="5.93846">
        <ele>1813.18</ele>
        <time>2013-08-22T10:24:22Z</time>
      </trkpt>
      <trkpt lat="45.43481" lon="5.9386">
        <ele>1796.84</ele>
        <time>2013-08-22T10:24:44Z</time>
      </trkpt>
      <trkpt lat="45.43486" lon="5.93865">
        <ele>1798.28</ele>
        <time>2013-08-22T10:25:05Z</time>
      </trkpt>
      <trkpt lat="45.43486" lon="5.93872">
        <ele>1807.42</ele>
        <time>2013-08-22T10:25:26Z</time>
      </trkpt>
      <trkpt lat="45.43484" lon="5.93888">
        <ele>1817.51</ele>
        <time>2013-08-22T10:25:45Z</time>
      </trkpt>
      <trkpt lat="45.43488" lon="5.93904">
        <ele>1825.68</ele>
        <time>2013-08-22T10:26:08Z</time>
      </trkpt>
      <trkpt lat="45.43494" lon="5.93915">
        <ele>1826.16</ele>
        <time>2013-08-22T10:26:33Z</time>
      </trkpt>
      <trkpt lat="45.43518" lon="5.93917">
        <ele>1806.94</ele>
        <time>2013-08-22T10:26:59Z</time>
      </trkpt>
      <trkpt lat="45.43532" lon="5.9393">
        <ele>1773.77</ele>
        <time>2013-08-22T10:27:36Z</time>
      </trkpt>
      <trkpt lat="45.43529" lon="5.93936">
        <ele>1764.64</ele>
        <time>2013-08-22T10:32:17Z</time>
      </trkpt>
      <trkpt lat="45.43684" lon="5.93989">
        <ele>1795.88</ele>
        <time>2013-08-22T10:40:18Z</time>
      </trkpt>
      <trkpt lat="45.43702" lon="5.93982">
        <ele>1780.98</ele>
        <time>2013-08-22T10:40:32Z</time>
      </trkpt>
      <trkpt lat="45.43712" lon="5.9397">
        <ele>1768.48</ele>
        <time>2013-08-22T10:40:46Z</time>
      </trkpt>
      <trkpt lat="45.43721" lon="5.93962">
        <ele>1761.75</ele>
        <time>2013-08-22T10:41:01Z</time>
      </trkpt>
      <trkpt lat="45.4373" lon="5.93959">
        <ele>1759.35</ele>
        <time>2013-08-22T10:41:16Z</time>
      </trkpt>
      <trkpt lat="45.43728" lon="5.93943">
        <ele>1757.91</ele>
        <time>2013-08-22T10:41:38Z</time>
      </trkpt>
      <trkpt lat="45.43751" lon="5.93943">
        <ele>1744.93</ele>
        <time>2013-08-22T10:41:58Z</time>
      </trkpt>
      <trkpt lat="45.43766" lon="5.93941">
        <ele>1738.2</ele>
        <time>2013-08-22T10:42:15Z</time>
      </trkpt>
      <trkpt lat="45.43774" lon="5.93944">
        <ele>1735.32</ele>
        <time>2013-08-22T10:42:26Z</time>
      </trkpt>
      <trkpt lat="45.43785" lon="5.93937">
        <ele>1734.36</ele>
        <time>2013-08-22T10:42:36Z</time>
      </trkpt>
      <trkpt lat="45.43798" lon="5.93922">
        <ele>1734.36</ele>
        <time>2013-08-22T10:42:56Z</time>
      </trkpt>
      <trkpt lat="45.43805" lon="5.93927">
        <ele>1733.88</ele>
        <time>2013-08-22T10:43:13Z</time>
      </trkpt>
      <trkpt lat="45.43803" lon="5.93941">
        <ele>1739.64</ele>
        <time>2013-08-22T10:43:23Z</time>
      </trkpt>
      <trkpt lat="45.438" lon="5.93953">
        <ele>1747.81</ele>
        <time>2013-08-22T10:43:36Z</time>
      </trkpt>
      <trkpt lat="45.438" lon="5.93961">
        <ele>1754.06</ele>
        <time>2013-08-22T10:43:46Z</time>
      </trkpt>
      <trkpt lat="45.43804" lon="5.93972">
        <ele>1760.79</ele>
        <time>2013-08-22T10:43:58Z</time>
      </trkpt>
      <trkpt lat="45.43807" lon="5.93984">
        <ele>1767.04</ele>
        <time>2013-08-22T10:44:11Z</time>
      </trkpt>
      <trkpt lat="45.43814" lon="5.94002">
        <ele>1772.33</ele>
        <time>2013-08-22T10:44:25Z</time>
      </trkpt>
      <trkpt lat="45.43847" lon="5.93986">
        <ele>1743.97</ele>
        <time>2013-08-22T10:44:45Z</time>
      </trkpt>
      <trkpt lat="45.43859" lon="5.93983">
        <ele>1740.12</ele>
        <time>2013-08-22T10:45:06Z</time>
      </trkpt>
      <trkpt lat="45.43868" lon="5.93978">
        <ele>1737.72</ele>
        <time>2013-08-22T10:45:21Z</time>
      </trkpt>
      <trkpt lat="45.43875" lon="5.93978">
        <ele>1733.88</ele>
        <time>2013-08-22T10:45:42Z</time>
      </trkpt>
      <trkpt lat="45.43886" lon="5.93971">
        <ele>1729.55</ele>
        <time>2013-08-22T10:45:57Z</time>
      </trkpt>
      <trkpt lat="45.43892" lon="5.93961">
        <ele>1727.15</ele>
        <time>2013-08-22T10:46:16Z</time>
      </trkpt>
      <trkpt lat="45.43902" lon="5.93953">
        <ele>1726.67</ele>
        <time>2013-08-22T10:46:32Z</time>
      </trkpt>
      <trkpt lat="45.4391" lon="5.93947">
        <ele>1721.86</ele>
        <time>2013-08-22T10:47:00Z</time>
      </trkpt>
      <trkpt lat="45.43916" lon="5.93944">
        <ele>1721.38</ele>
        <time>2013-08-22T10:47:24Z</time>
      </trkpt>
      <trkpt lat="45.43923" lon="5.93942">
        <ele>1718.01</ele>
        <time>2013-08-22T10:47:35Z</time>
      </trkpt>
      <trkpt lat="45.43931" lon="5.93945">
        <ele>1718.01</ele>
        <time>2013-08-22T10:47:48Z</time>
      </trkpt>
      <trkpt lat="45.43939" lon="5.93951">
        <ele>1718.01</ele>
        <time>2013-08-22T10:48:04Z</time>
      </trkpt>
      <trkpt lat="45.43938" lon="5.93961">
        <ele>1721.38</ele>
        <time>2013-08-22T10:48:16Z</time>
      </trkpt>
      <trkpt lat="45.43944" lon="5.93971">
        <ele>1726.67</ele>
        <time>2013-08-22T10:48:30Z</time>
      </trkpt>
      <trkpt lat="45.43949" lon="5.9398">
        <ele>1731.95</ele>
        <time>2013-08-22T10:48:46Z</time>
      </trkpt>
      <trkpt lat="45.43957" lon="5.93991">
        <ele>1732.43</ele>
        <time>2013-08-22T10:49:09Z</time>
      </trkpt>
      <trkpt lat="45.43964" lon="5.93999">
        <ele>1734.36</ele>
        <time>2013-08-22T10:49:31Z</time>
      </trkpt>
      <trkpt lat="45.43975" lon="5.94005">
        <ele>1733.39</ele>
        <time>2013-08-22T10:49:47Z</time>
      </trkpt>
      <trkpt lat="45.4399" lon="5.94012">
        <ele>1726.67</ele>
        <time>2013-08-22T10:50:08Z</time>
      </trkpt>
      <trkpt lat="45.44002" lon="5.9401">
        <ele>1724.26</ele>
        <time>2013-08-22T10:50:25Z</time>
      </trkpt>
      <trkpt lat="45.44014" lon="5.94016">
        <ele>1719.94</ele>
        <time>2013-08-22T10:50:40Z</time>
      </trkpt>
      <trkpt lat="45.44021" lon="5.94023">
        <ele>1719.94</ele>
        <time>2013-08-22T10:50:55Z</time>
      </trkpt>
      <trkpt lat="45.44029" lon="5.94031">
        <ele>1721.86</ele>
        <time>2013-08-22T10:51:21Z</time>
      </trkpt>
      <trkpt lat="45.4404" lon="5.9403">
        <ele>1719.46</ele>
        <time>2013-08-22T10:51:43Z</time>
      </trkpt>
      <trkpt lat="45.44051" lon="5.9403">
        <ele>1718.01</ele>
        <time>2013-08-22T10:52:04Z</time>
      </trkpt>
      <trkpt lat="45.44072" lon="5.94019">
        <ele>1715.13</ele>
        <time>2013-08-22T10:52:54Z</time>
      </trkpt>
      <trkpt lat="45.44078" lon="5.9401">
        <ele>1706.96</ele>
        <time>2013-08-22T10:53:29Z</time>
      </trkpt>
      <trkpt lat="45.44075" lon="5.94001">
        <ele>1708.88</ele>
        <time>2013-08-22T10:54:01Z</time>
      </trkpt>
      <trkpt lat="45.44074" lon="5.93999">
        <ele>1713.69</ele>
        <time>2013-08-22T10:54:33Z</time>
      </trkpt>
      <trkpt lat="45.44066" lon="5.93999">
        <ele>1715.61</ele>
        <time>2013-08-22T10:55:02Z</time>
      </trkpt>
      <trkpt lat="45.44068" lon="5.93988">
        <ele>1720.42</ele>
        <time>2013-08-22T10:55:32Z</time>
      </trkpt>
      <trkpt lat="45.44069" lon="5.93972">
        <ele>1735.32</ele>
        <time>2013-08-22T10:57:03Z</time>
      </trkpt>
      <trkpt lat="45.44067" lon="5.9396">
        <ele>1737.72</ele>
        <time>2013-08-22T10:57:14Z</time>
      </trkpt>
      <trkpt lat="45.44061" lon="5.93953">
        <ele>1737.72</ele>
        <time>2013-08-22T10:58:47Z</time>
      </trkpt>
      <trkpt lat="45.4405" lon="5.93955">
        <ele>1738.68</ele>
        <time>2013-08-22T10:59:51Z</time>
      </trkpt>
      <trkpt lat="45.4404" lon="5.93957">
        <ele>1741.08</ele>
        <time>2013-08-22T11:00:10Z</time>
      </trkpt>
      <trkpt lat="45.44045" lon="5.93962">
        <ele>1743.97</ele>
        <time>2013-08-22T11:00:43Z</time>
      </trkpt>
      <trkpt lat="45.4404" lon="5.93961">
        <ele>1744.93</ele>
        <time>2013-08-22T11:25:39Z</time>
      </trkpt>
      <trkpt lat="45.44031" lon="5.93957">
        <ele>1748.78</ele>
        <time>2013-08-22T11:25:57Z</time>
      </trkpt>
      <trkpt lat="45.44023" lon="5.93952">
        <ele>1753.1</ele>
        <time>2013-08-22T11:26:22Z</time>
      </trkpt>
      <trkpt lat="45.44009" lon="5.93949">
        <ele>1755.02</ele>
        <time>2013-08-22T11:26:47Z</time>
      </trkpt>
      <trkpt lat="45.43998" lon="5.93951">
        <ele>1761.27</ele>
        <time>2013-08-22T11:27:11Z</time>
      </trkpt>
      <trkpt lat="45.43987" lon="5.93949">
        <ele>1766.08</ele>
        <time>2013-08-22T11:27:36Z</time>
      </trkpt>
      <trkpt lat="45.43972" lon="5.93949">
        <ele>1762.71</ele>
        <time>2013-08-22T11:28:01Z</time>
      </trkpt>
      <trkpt lat="45.43959" lon="5.9394">
        <ele>1758.39</ele>
        <time>2013-08-22T11:28:28Z</time>
      </trkpt>
      <trkpt lat="45.43948" lon="5.93923">
        <ele>1757.43</ele>
        <time>2013-08-22T11:29:04Z</time>
      </trkpt>
      <trkpt lat="45.43942" lon="5.93916">
        <ele>1756.95</ele>
        <time>2013-08-22T11:29:20Z</time>
      </trkpt>
      <trkpt lat="45.43933" lon="5.9391">
        <ele>1756.95</ele>
        <time>2013-08-22T11:29:34Z</time>
      </trkpt>
      <trkpt lat="45.43925" lon="5.93905">
        <ele>1754.54</ele>
        <time>2013-08-22T11:29:47Z</time>
      </trkpt>
      <trkpt lat="45.43916" lon="5.93911">
        <ele>1755.5</ele>
        <time>2013-08-22T11:30:10Z</time>
      </trkpt>
      <trkpt lat="45.43907" lon="5.93907">
        <ele>1756.47</ele>
        <time>2013-08-22T11:30:26Z</time>
      </trkpt>
      <trkpt lat="45.43899" lon="5.93899">
        <ele>1759.83</ele>
        <time>2013-08-22T11:30:41Z</time>
      </trkpt>
      <trkpt lat="45.4389" lon="5.93903">
        <ele>1765.12</ele>
        <time>2013-08-22T11:31:15Z</time>
      </trkpt>
      <trkpt lat="45.43877" lon="5.93912">
        <ele>1770.41</ele>
        <time>2013-08-22T11:31:41Z</time>
      </trkpt>
      <trkpt lat="45.43875" lon="5.93928">
        <ele>1769.44</ele>
        <time>2013-08-22T11:32:05Z</time>
      </trkpt>
      <trkpt lat="45.43864" lon="5.93933">
        <ele>1766.56</ele>
        <time>2013-08-22T11:32:53Z</time>
      </trkpt>
      <trkpt lat="45.43853" lon="5.93932">
        <ele>1771.85</ele>
        <time>2013-08-22T11:33:14Z</time>
      </trkpt>
      <trkpt lat="45.43842" lon="5.93928">
        <ele>1777.61</ele>
        <time>2013-08-22T11:33:36Z</time>
      </trkpt>
      <trkpt lat="45.43832" lon="5.93926">
        <ele>1775.21</ele>
        <time>2013-08-22T11:34:12Z</time>
      </trkpt>
      <trkpt lat="45.43825" lon="5.93918">
        <ele>1772.81</ele>
        <time>2013-08-22T11:34:35Z</time>
      </trkpt>
      <trkpt lat="45.43815" lon="5.93911">
        <ele>1773.29</ele>
        <time>2013-08-22T11:34:58Z</time>
      </trkpt>
      <trkpt lat="45.43805" lon="5.93903">
        <ele>1773.29</ele>
        <time>2013-08-22T11:35:15Z</time>
      </trkpt>
      <trkpt lat="45.43793" lon="5.93897">
        <ele>1776.65</ele>
        <time>2013-08-22T11:35:40Z</time>
      </trkpt>
      <trkpt lat="45.43779" lon="5.93895">
        <ele>1777.61</ele>
        <time>2013-08-22T11:36:12Z</time>
      </trkpt>
      <trkpt lat="45.4377" lon="5.93888">
        <ele>1779.06</ele>
        <time>2013-08-22T11:36:35Z</time>
      </trkpt>
      <trkpt lat="45.4376" lon="5.93885">
        <ele>1785.31</ele>
        <time>2013-08-22T11:36:57Z</time>
      </trkpt>
      <trkpt lat="45.4375" lon="5.93879">
        <ele>1787.71</ele>
        <time>2013-08-22T11:37:16Z</time>
      </trkpt>
      <trkpt lat="45.43741" lon="5.93878">
        <ele>1789.63</ele>
        <time>2013-08-22T11:37:40Z</time>
      </trkpt>
      <trkpt lat="45.4373" lon="5.93879">
        <ele>1791.07</ele>
        <time>2013-08-22T11:38:07Z</time>
      </trkpt>
      <trkpt lat="45.43723" lon="5.93889">
        <ele>1793.96</ele>
        <time>2013-08-22T11:38:44Z</time>
      </trkpt>
      <trkpt lat="45.43713" lon="5.93887">
        <ele>1793.96</ele>
        <time>2013-08-22T11:39:07Z</time>
      </trkpt>
      <trkpt lat="45.43705" lon="5.93883">
        <ele>1788.67</ele>
        <time>2013-08-22T11:40:40Z</time>
      </trkpt>
      <trkpt lat="45.43698" lon="5.93879">
        <ele>1788.67</ele>
        <time>2013-08-22T11:40:52Z</time>
      </trkpt>
      <trkpt lat="45.43689" lon="5.93878">
        <ele>1791.07</ele>
        <time>2013-08-22T11:41:06Z</time>
      </trkpt>
      <trkpt lat="45.43678" lon="5.93877">
        <ele>1793</ele>
        <time>2013-08-22T11:41:20Z</time>
      </trkpt>
      <trkpt lat="45.43668" lon="5.93873">
        <ele>1798.28</ele>
        <time>2013-08-22T11:41:35Z</time>
      </trkpt>
      <trkpt lat="45.43658" lon="5.9387">
        <ele>1798.28</ele>
        <time>2013-08-22T11:41:50Z</time>
      </trkpt>
      <trkpt lat="45.43648" lon="5.93869">
        <ele>1802.13</ele>
        <time>2013-08-22T11:42:03Z</time>
      </trkpt>
      <trkpt lat="45.43639" lon="5.93866">
        <ele>1804.53</ele>
        <time>2013-08-22T11:42:20Z</time>
      </trkpt>
      <trkpt lat="45.4363" lon="5.93858">
        <ele>1804.05</ele>
        <time>2013-08-22T11:42:32Z</time>
      </trkpt>
      <trkpt lat="45.43621" lon="5.93848">
        <ele>1804.05</ele>
        <time>2013-08-22T11:42:45Z</time>
      </trkpt>
      <trkpt lat="45.43611" lon="5.9384">
        <ele>1802.61</ele>
        <time>2013-08-22T11:43:03Z</time>
      </trkpt>
      <trkpt lat="45.43603" lon="5.93833">
        <ele>1804.05</ele>
        <time>2013-08-22T11:43:17Z</time>
      </trkpt>
      <trkpt lat="45.43593" lon="5.93826">
        <ele>1803.09</ele>
        <time>2013-08-22T11:43:29Z</time>
      </trkpt>
      <trkpt lat="45.43583" lon="5.9382">
        <ele>1801.65</ele>
        <time>2013-08-22T11:43:40Z</time>
      </trkpt>
      <trkpt lat="45.43575" lon="5.93813">
        <ele>1800.69</ele>
        <time>2013-08-22T11:43:55Z</time>
      </trkpt>
      <trkpt lat="45.43565" lon="5.93805">
        <ele>1801.17</ele>
        <time>2013-08-22T11:44:07Z</time>
      </trkpt>
      <trkpt lat="45.43554" lon="5.93797">
        <ele>1799.73</ele>
        <time>2013-08-22T11:44:17Z</time>
      </trkpt>
      <trkpt lat="45.43545" lon="5.9379">
        <ele>1799.24</ele>
        <time>2013-08-22T11:44:28Z</time>
      </trkpt>
      <trkpt lat="45.43536" lon="5.93786">
        <ele>1799.24</ele>
        <time>2013-08-22T11:44:40Z</time>
      </trkpt>
      <trkpt lat="45.43526" lon="5.93781">
        <ele>1799.73</ele>
        <time>2013-08-22T11:44:51Z</time>
      </trkpt>
      <trkpt lat="45.43517" lon="5.93775">
        <ele>1798.76</ele>
        <time>2013-08-22T11:45:02Z</time>
      </trkpt>
      <trkpt lat="45.43509" lon="5.93767">
        <ele>1797.8</ele>
        <time>2013-08-22T11:45:14Z</time>
      </trkpt>
      <trkpt lat="45.43499" lon="5.93764">
        <ele>1797.8</ele>
        <time>2013-08-22T11:45:25Z</time>
      </trkpt>
      <trkpt lat="45.4349" lon="5.9376">
        <ele>1797.32</ele>
        <time>2013-08-22T11:45:39Z</time>
      </trkpt>
      <trkpt lat="45.4348" lon="5.93762">
        <ele>1798.76</ele>
        <time>2013-08-22T11:45:56Z</time>
      </trkpt>
      <trkpt lat="45.43465" lon="5.93756">
        <ele>1793.48</ele>
        <time>2013-08-22T11:47:18Z</time>
      </trkpt>
      <trkpt lat="45.4346" lon="5.93744">
        <ele>1791.55</ele>
        <time>2013-08-22T11:47:33Z</time>
      </trkpt>
      <trkpt lat="45.43452" lon="5.93733">
        <ele>1790.59</ele>
        <time>2013-08-22T11:47:43Z</time>
      </trkpt>
      <trkpt lat="45.43445" lon="5.93726">
        <ele>1790.11</ele>
        <time>2013-08-22T11:47:52Z</time>
      </trkpt>
      <trkpt lat="45.43437" lon="5.93717">
        <ele>1788.67</ele>
        <time>2013-08-22T11:48:02Z</time>
      </trkpt>
      <trkpt lat="45.43429" lon="5.93711">
        <ele>1789.15</ele>
        <time>2013-08-22T11:48:12Z</time>
      </trkpt>
      <trkpt lat="45.43419" lon="5.93705">
        <ele>1791.07</ele>
        <time>2013-08-22T11:48:26Z</time>
      </trkpt>
      <trkpt lat="45.43409" lon="5.93702">
        <ele>1794.92</ele>
        <time>2013-08-22T11:48:43Z</time>
      </trkpt>
      <trkpt lat="45.43391" lon="5.93703">
        <ele>1798.76</ele>
        <time>2013-08-22T11:49:15Z</time>
      </trkpt>
      <trkpt lat="45.43377" lon="5.93704">
        <ele>1797.32</ele>
        <time>2013-08-22T11:50:12Z</time>
      </trkpt>
      <trkpt lat="45.43368" lon="5.93706">
        <ele>1801.17</ele>
        <time>2013-08-22T11:50:41Z</time>
      </trkpt>
      <trkpt lat="45.43358" lon="5.9371">
        <ele>1805.49</ele>
        <time>2013-08-22T11:51:05Z</time>
      </trkpt>
      <trkpt lat="45.43343" lon="5.93719">
        <ele>1813.18</ele>
        <time>2013-08-22T11:52:19Z</time>
      </trkpt>
      <trkpt lat="45.43334" lon="5.93719">
        <ele>1817.03</ele>
        <time>2013-08-22T11:52:41Z</time>
      </trkpt>
      <trkpt lat="45.43323" lon="5.93715">
        <ele>1821.35</ele>
        <time>2013-08-22T11:53:03Z</time>
      </trkpt>
      <trkpt lat="45.43314" lon="5.93714">
        <ele>1824.72</ele>
        <time>2013-08-22T11:53:22Z</time>
      </trkpt>
      <trkpt lat="45.43305" lon="5.93713">
        <ele>1829.53</ele>
        <time>2013-08-22T11:53:42Z</time>
      </trkpt>
      <trkpt lat="45.43295" lon="5.9371">
        <ele>1832.41</ele>
        <time>2013-08-22T11:54:00Z</time>
      </trkpt>
      <trkpt lat="45.43286" lon="5.93702">
        <ele>1832.89</ele>
        <time>2013-08-22T11:54:14Z</time>
      </trkpt>
      <trkpt lat="45.43276" lon="5.93697">
        <ele>1832.41</ele>
        <time>2013-08-22T11:54:26Z</time>
      </trkpt>
      <trkpt lat="45.43268" lon="5.93688">
        <ele>1832.41</ele>
        <time>2013-08-22T11:54:38Z</time>
      </trkpt>
      <trkpt lat="45.43259" lon="5.93684">
        <ele>1833.37</ele>
        <time>2013-08-22T11:54:50Z</time>
      </trkpt>
      <trkpt lat="45.4325" lon="5.93677">
        <ele>1834.33</ele>
        <time>2013-08-22T11:55:02Z</time>
      </trkpt>
      <trkpt lat="45.43241" lon="5.93669">
        <ele>1833.85</ele>
        <time>2013-08-22T11:55:13Z</time>
      </trkpt>
      <trkpt lat="45.43232" lon="5.93662">
        <ele>1832.41</ele>
        <time>2013-08-22T11:55:24Z</time>
      </trkpt>
      <trkpt lat="45.43223" lon="5.93658">
        <ele>1831.45</ele>
        <time>2013-08-22T11:55:35Z</time>
      </trkpt>
      <trkpt lat="45.43215" lon="5.93651">
        <ele>1831.45</ele>
        <time>2013-08-22T11:55:46Z</time>
      </trkpt>
      <trkpt lat="45.43207" lon="5.93647">
        <ele>1831.45</ele>
        <time>2013-08-22T11:55:56Z</time>
      </trkpt>
      <trkpt lat="45.43199" lon="5.93642">
        <ele>1829.53</ele>
        <time>2013-08-22T11:56:05Z</time>
      </trkpt>
      <trkpt lat="45.43191" lon="5.93634">
        <ele>1828.56</ele>
        <time>2013-08-22T11:56:14Z</time>
      </trkpt>
      <trkpt lat="45.43183" lon="5.93628">
        <ele>1827.6</ele>
        <time>2013-08-22T11:56:23Z</time>
      </trkpt>
      <trkpt lat="45.43175" lon="5.93621">
        <ele>1827.12</ele>
        <time>2013-08-22T11:56:32Z</time>
      </trkpt>
      <trkpt lat="45.43167" lon="5.93612">
        <ele>1826.16</ele>
        <time>2013-08-22T11:56:41Z</time>
      </trkpt>
      <trkpt lat="45.4316" lon="5.93603">
        <ele>1824.72</ele>
        <time>2013-08-22T11:56:50Z</time>
      </trkpt>
      <trkpt lat="45.43152" lon="5.93594">
        <ele>1823.28</ele>
        <time>2013-08-22T11:57:01Z</time>
      </trkpt>
      <trkpt lat="45.43145" lon="5.93585">
        <ele>1822.32</ele>
        <time>2013-08-22T11:57:10Z</time>
      </trkpt>
      <trkpt lat="45.43139" lon="5.93575">
        <ele>1821.35</ele>
        <time>2013-08-22T11:57:20Z</time>
      </trkpt>
      <trkpt lat="45.43133" lon="5.93565">
        <ele>1820.39</ele>
        <time>2013-08-22T11:57:29Z</time>
      </trkpt>
      <trkpt lat="45.43128" lon="5.93554">
        <ele>1819.43</ele>
        <time>2013-08-22T11:57:39Z</time>
      </trkpt>
      <trkpt lat="45.43123" lon="5.93543">
        <ele>1818.47</ele>
        <time>2013-08-22T11:57:48Z</time>
      </trkpt>
      <trkpt lat="45.43119" lon="5.93533">
        <ele>1817.03</ele>
        <time>2013-08-22T11:57:58Z</time>
      </trkpt>
      <trkpt lat="45.43112" lon="5.93523">
        <ele>1816.07</ele>
        <time>2013-08-22T11:58:09Z</time>
      </trkpt>
      <trkpt lat="45.43106" lon="5.93515">
        <ele>1817.03</ele>
        <time>2013-08-22T11:58:24Z</time>
      </trkpt>
      <trkpt lat="45.43097" lon="5.93515">
        <ele>1818.47</ele>
        <time>2013-08-22T11:58:41Z</time>
      </trkpt>
      <trkpt lat="45.43087" lon="5.93513">
        <ele>1818.95</ele>
        <time>2013-08-22T11:58:59Z</time>
      </trkpt>
      <trkpt lat="45.43077" lon="5.93515">
        <ele>1819.43</ele>
        <time>2013-08-22T11:59:14Z</time>
      </trkpt>
      <trkpt lat="45.43068" lon="5.93518">
        <ele>1820.39</ele>
        <time>2013-08-22T11:59:30Z</time>
      </trkpt>
      <trkpt lat="45.43059" lon="5.93518">
        <ele>1820.87</ele>
        <time>2013-08-22T11:59:46Z</time>
      </trkpt>
      <trkpt lat="45.4305" lon="5.93518">
        <ele>1821.84</ele>
        <time>2013-08-22T12:00:01Z</time>
      </trkpt>
      <trkpt lat="45.43043" lon="5.93507">
        <ele>1822.8</ele>
        <time>2013-08-22T12:00:18Z</time>
      </trkpt>
      <trkpt lat="45.43037" lon="5.93496">
        <ele>1823.28</ele>
        <time>2013-08-22T12:00:40Z</time>
      </trkpt>
      <trkpt lat="45.43028" lon="5.9349">
        <ele>1824.72</ele>
        <time>2013-08-22T12:00:54Z</time>
      </trkpt>
      <trkpt lat="45.43017" lon="5.93489">
        <ele>1822.32</ele>
        <time>2013-08-22T12:01:15Z</time>
      </trkpt>
      <trkpt lat="45.43009" lon="5.93482">
        <ele>1822.8</ele>
        <time>2013-08-22T12:01:29Z</time>
      </trkpt>
      <trkpt lat="45.42999" lon="5.93476">
        <ele>1823.28</ele>
        <time>2013-08-22T12:01:43Z</time>
      </trkpt>
      <trkpt lat="45.4299" lon="5.93467">
        <ele>1822.32</ele>
        <time>2013-08-22T12:01:57Z</time>
      </trkpt>
      <trkpt lat="45.42981" lon="5.93459">
        <ele>1822.8</ele>
        <time>2013-08-22T12:02:11Z</time>
      </trkpt>
      <trkpt lat="45.4297" lon="5.93455">
        <ele>1822.8</ele>
        <time>2013-08-22T12:02:31Z</time>
      </trkpt>
      <trkpt lat="45.42959" lon="5.9345">
        <ele>1822.32</ele>
        <time>2013-08-22T12:02:46Z</time>
      </trkpt>
      <trkpt lat="45.42949" lon="5.93451">
        <ele>1826.16</ele>
        <time>2013-08-22T12:03:07Z</time>
      </trkpt>
      <trkpt lat="45.42939" lon="5.93445">
        <ele>1826.64</ele>
        <time>2013-08-22T12:03:19Z</time>
      </trkpt>
      <trkpt lat="45.42929" lon="5.93442">
        <ele>1827.12</ele>
        <time>2013-08-22T12:03:31Z</time>
      </trkpt>
      <trkpt lat="45.4292" lon="5.93439">
        <ele>1825.68</ele>
        <time>2013-08-22T12:03:46Z</time>
      </trkpt>
      <trkpt lat="45.42911" lon="5.93435">
        <ele>1823.76</ele>
        <time>2013-08-22T12:03:59Z</time>
      </trkpt>
      <trkpt lat="45.42903" lon="5.93428">
        <ele>1820.87</ele>
        <time>2013-08-22T12:04:12Z</time>
      </trkpt>
      <trkpt lat="45.42893" lon="5.93427">
        <ele>1819.91</ele>
        <time>2013-08-22T12:04:22Z</time>
      </trkpt>
      <trkpt lat="45.42884" lon="5.93427">
        <ele>1819.43</ele>
        <time>2013-08-22T12:04:31Z</time>
      </trkpt>
      <trkpt lat="45.42874" lon="5.93429">
        <ele>1820.39</ele>
        <time>2013-08-22T12:04:41Z</time>
      </trkpt>
      <trkpt lat="45.42865" lon="5.93429">
        <ele>1821.35</ele>
        <time>2013-08-22T12:04:53Z</time>
      </trkpt>
      <trkpt lat="45.42856" lon="5.93426">
        <ele>1823.28</ele>
        <time>2013-08-22T12:05:05Z</time>
      </trkpt>
      <trkpt lat="45.42847" lon="5.93423">
        <ele>1823.76</ele>
        <time>2013-08-22T12:05:18Z</time>
      </trkpt>
      <trkpt lat="45.42837" lon="5.93422">
        <ele>1823.28</ele>
        <time>2013-08-22T12:05:30Z</time>
      </trkpt>
      <trkpt lat="45.42828" lon="5.93418">
        <ele>1823.28</ele>
        <time>2013-08-22T12:05:41Z</time>
      </trkpt>
      <trkpt lat="45.4282" lon="5.93412">
        <ele>1823.28</ele>
        <time>2013-08-22T12:05:51Z</time>
      </trkpt>
      <trkpt lat="45.42812" lon="5.93404">
        <ele>1823.28</ele>
        <time>2013-08-22T12:06:02Z</time>
      </trkpt>
      <trkpt lat="45.42804" lon="5.93396">
        <ele>1822.32</ele>
        <time>2013-08-22T12:06:13Z</time>
      </trkpt>
      <trkpt lat="45.42796" lon="5.93392">
        <ele>1821.84</ele>
        <time>2013-08-22T12:06:23Z</time>
      </trkpt>
      <trkpt lat="45.42787" lon="5.93386">
        <ele>1821.84</ele>
        <time>2013-08-22T12:06:34Z</time>
      </trkpt>
      <trkpt lat="45.42779" lon="5.93381">
        <ele>1821.35</ele>
        <time>2013-08-22T12:06:50Z</time>
      </trkpt>
      <trkpt lat="45.42771" lon="5.93373">
        <ele>1820.87</ele>
        <time>2013-08-22T12:07:00Z</time>
      </trkpt>
      <trkpt lat="45.42765" lon="5.93363">
        <ele>1820.87</ele>
        <time>2013-08-22T12:07:12Z</time>
      </trkpt>
      <trkpt lat="45.4276" lon="5.93352">
        <ele>1821.35</ele>
        <time>2013-08-22T12:07:26Z</time>
      </trkpt>
      <trkpt lat="45.42755" lon="5.9334">
        <ele>1819.91</ele>
        <time>2013-08-22T12:07:38Z</time>
      </trkpt>
      <trkpt lat="45.42747" lon="5.93335">
        <ele>1821.84</ele>
        <time>2013-08-22T12:07:50Z</time>
      </trkpt>
      <trkpt lat="45.4274" lon="5.93327">
        <ele>1821.84</ele>
        <time>2013-08-22T12:08:01Z</time>
      </trkpt>
      <trkpt lat="45.42732" lon="5.9332">
        <ele>1822.32</ele>
        <time>2013-08-22T12:08:12Z</time>
      </trkpt>
      <trkpt lat="45.42723" lon="5.93313">
        <ele>1823.76</ele>
        <time>2013-08-22T12:08:24Z</time>
      </trkpt>
      <trkpt lat="45.42715" lon="5.93308">
        <ele>1822.32</ele>
        <time>2013-08-22T12:08:36Z</time>
      </trkpt>
      <trkpt lat="45.42705" lon="5.93304">
        <ele>1820.87</ele>
        <time>2013-08-22T12:08:49Z</time>
      </trkpt>
      <trkpt lat="45.427" lon="5.93293">
        <ele>1818.95</ele>
        <time>2013-08-22T12:09:01Z</time>
      </trkpt>
      <trkpt lat="45.42696" lon="5.93281">
        <ele>1815.59</ele>
        <time>2013-08-22T12:09:17Z</time>
      </trkpt>
      <trkpt lat="45.42688" lon="5.93273">
        <ele>1814.15</ele>
        <time>2013-08-22T12:09:33Z</time>
      </trkpt>
      <trkpt lat="45.42679" lon="5.9327">
        <ele>1813.66</ele>
        <time>2013-08-22T12:09:43Z</time>
      </trkpt>
      <trkpt lat="45.42671" lon="5.93269">
        <ele>1816.07</ele>
        <time>2013-08-22T12:09:58Z</time>
      </trkpt>
      <trkpt lat="45.42663" lon="5.9327">
        <ele>1818.47</ele>
        <time>2013-08-22T12:10:12Z</time>
      </trkpt>
      <trkpt lat="45.42655" lon="5.93272">
        <ele>1820.39</ele>
        <time>2013-08-22T12:10:27Z</time>
      </trkpt>
      <trkpt lat="45.42645" lon="5.93272">
        <ele>1821.35</ele>
        <time>2013-08-22T12:10:39Z</time>
      </trkpt>
      <trkpt lat="45.42637" lon="5.93271">
        <ele>1822.8</ele>
        <time>2013-08-22T12:10:51Z</time>
      </trkpt>
      <trkpt lat="45.42627" lon="5.9327">
        <ele>1823.76</ele>
        <time>2013-08-22T12:11:04Z</time>
      </trkpt>
      <trkpt lat="45.42618" lon="5.93269">
        <ele>1825.68</ele>
        <time>2013-08-22T12:11:17Z</time>
      </trkpt>
      <trkpt lat="45.42609" lon="5.93266">
        <ele>1825.2</ele>
        <time>2013-08-22T12:11:28Z</time>
      </trkpt>
      <trkpt lat="45.42599" lon="5.93259">
        <ele>1825.2</ele>
        <time>2013-08-22T12:11:40Z</time>
      </trkpt>
      <trkpt lat="45.42591" lon="5.93253">
        <ele>1825.2</ele>
        <time>2013-08-22T12:11:50Z</time>
      </trkpt>
      <trkpt lat="45.42582" lon="5.93249">
        <ele>1826.64</ele>
        <time>2013-08-22T12:12:01Z</time>
      </trkpt>
      <trkpt lat="45.42573" lon="5.93243">
        <ele>1825.68</ele>
        <time>2013-08-22T12:12:11Z</time>
      </trkpt>
      <trkpt lat="45.42567" lon="5.93233">
        <ele>1824.24</ele>
        <time>2013-08-22T12:12:22Z</time>
      </trkpt>
      <trkpt lat="45.42558" lon="5.93226">
        <ele>1823.76</ele>
        <time>2013-08-22T12:12:32Z</time>
      </trkpt>
      <trkpt lat="45.4255" lon="5.93219">
        <ele>1821.35</ele>
        <time>2013-08-22T12:12:42Z</time>
      </trkpt>
      <trkpt lat="45.42542" lon="5.93211">
        <ele>1821.84</ele>
        <time>2013-08-22T12:12:52Z</time>
      </trkpt>
      <trkpt lat="45.42535" lon="5.93203">
        <ele>1820.87</ele>
        <time>2013-08-22T12:13:02Z</time>
      </trkpt>
      <trkpt lat="45.42527" lon="5.93194">
        <ele>1819.91</ele>
        <time>2013-08-22T12:13:12Z</time>
      </trkpt>
      <trkpt lat="45.42518" lon="5.93187">
        <ele>1819.43</ele>
        <time>2013-08-22T12:13:23Z</time>
      </trkpt>
      <trkpt lat="45.42512" lon="5.93177">
        <ele>1818.47</ele>
        <time>2013-08-22T12:13:33Z</time>
      </trkpt>
      <trkpt lat="45.42505" lon="5.93169">
        <ele>1817.51</ele>
        <time>2013-08-22T12:13:44Z</time>
      </trkpt>
      <trkpt lat="45.42497" lon="5.93159">
        <ele>1818.47</ele>
        <time>2013-08-22T12:13:56Z</time>
      </trkpt>
      <trkpt lat="45.42491" lon="5.93145">
        <ele>1814.63</ele>
        <time>2013-08-22T12:14:16Z</time>
      </trkpt>
      <trkpt lat="45.42484" lon="5.93143">
        <ele>1811.26</ele>
        <time>2013-08-22T12:14:29Z</time>
      </trkpt>
      <trkpt lat="45.42474" lon="5.93139">
        <ele>1807.42</ele>
        <time>2013-08-22T12:14:48Z</time>
      </trkpt>
      <trkpt lat="45.42463" lon="5.93136">
        <ele>1806.94</ele>
        <time>2013-08-22T12:15:10Z</time>
      </trkpt>
      <trkpt lat="45.42455" lon="5.93126">
        <ele>1807.42</ele>
        <time>2013-08-22T12:15:28Z</time>
      </trkpt>
      <trkpt lat="45.42448" lon="5.93115">
        <ele>1805.01</ele>
        <time>2013-08-22T12:15:49Z</time>
      </trkpt>
      <trkpt lat="45.42432" lon="5.93105">
        <ele>1801.17</ele>
        <time>2013-08-22T12:16:20Z</time>
      </trkpt>
      <trkpt lat="45.42425" lon="5.93092">
        <ele>1798.28</ele>
        <time>2013-08-22T12:16:43Z</time>
      </trkpt>
      <trkpt lat="45.42422" lon="5.93077">
        <ele>1796.36</ele>
        <time>2013-08-22T12:17:08Z</time>
      </trkpt>
      <trkpt lat="45.42419" lon="5.93065">
        <ele>1791.07</ele>
        <time>2013-08-22T12:17:29Z</time>
      </trkpt>
      <trkpt lat="45.42414" lon="5.93055">
        <ele>1790.11</ele>
        <time>2013-08-22T12:17:46Z</time>
      </trkpt>
      <trkpt lat="45.42408" lon="5.93042">
        <ele>1786.27</ele>
        <time>2013-08-22T12:18:03Z</time>
      </trkpt>
      <trkpt lat="45.42401" lon="5.93031">
        <ele>1784.34</ele>
        <time>2013-08-22T12:18:19Z</time>
      </trkpt>
      <trkpt lat="45.42394" lon="5.93022">
        <ele>1783.86</ele>
        <time>2013-08-22T12:18:37Z</time>
      </trkpt>
      <trkpt lat="45.42389" lon="5.93005">
        <ele>1778.1</ele>
        <time>2013-08-22T12:19:01Z</time>
      </trkpt>
      <trkpt lat="45.42375" lon="5.92994">
        <ele>1770.89</ele>
        <time>2013-08-22T12:19:53Z</time>
      </trkpt>
      <trkpt lat="45.42368" lon="5.92988">
        <ele>1768.48</ele>
        <time>2013-08-22T12:20:31Z</time>
      </trkpt>
      <trkpt lat="45.42363" lon="5.92976">
        <ele>1766.56</ele>
        <time>2013-08-22T12:20:45Z</time>
      </trkpt>
      <trkpt lat="45.42354" lon="5.92969">
        <ele>1762.23</ele>
        <time>2013-08-22T12:21:01Z</time>
      </trkpt>
      <trkpt lat="45.42346" lon="5.92964">
        <ele>1756.95</ele>
        <time>2013-08-22T12:21:17Z</time>
      </trkpt>
      <trkpt lat="45.42338" lon="5.92956">
        <ele>1753.58</ele>
        <time>2013-08-22T12:21:30Z</time>
      </trkpt>
      <trkpt lat="45.42331" lon="5.92948">
        <ele>1750.7</ele>
        <time>2013-08-22T12:21:44Z</time>
      </trkpt>
      <trkpt lat="45.42322" lon="5.92951">
        <ele>1750.7</ele>
        <time>2013-08-22T12:21:58Z</time>
      </trkpt>
      <trkpt lat="45.42317" lon="5.92961">
        <ele>1750.7</ele>
        <time>2013-08-22T12:22:09Z</time>
      </trkpt>
      <trkpt lat="45.42314" lon="5.92975">
        <ele>1749.26</ele>
        <time>2013-08-22T12:22:20Z</time>
      </trkpt>
      <trkpt lat="45.42317" lon="5.92989">
        <ele>1750.22</ele>
        <time>2013-08-22T12:22:30Z</time>
      </trkpt>
      <trkpt lat="45.4232" lon="5.93">
        <ele>1751.66</ele>
        <time>2013-08-22T12:22:39Z</time>
      </trkpt>
      <trkpt lat="45.4232" lon="5.93005">
        <ele>1753.1</ele>
        <time>2013-08-22T12:23:13Z</time>
      </trkpt>
      <trkpt lat="45.42319" lon="5.9299">
        <ele>1755.02</ele>
        <time>2013-08-22T12:23:26Z</time>
      </trkpt>
      <trkpt lat="45.42316" lon="5.92977">
        <ele>1755.99</ele>
        <time>2013-08-22T12:23:36Z</time>
      </trkpt>
      <trkpt lat="45.42308" lon="5.92969">
        <ele>1756.47</ele>
        <time>2013-08-22T12:23:48Z</time>
      </trkpt>
      <trkpt lat="45.42301" lon="5.9296">
        <ele>1757.43</ele>
        <time>2013-08-22T12:23:59Z</time>
      </trkpt>
      <trkpt lat="45.42295" lon="5.92949">
        <ele>1760.31</ele>
        <time>2013-08-22T12:24:14Z</time>
      </trkpt>
      <trkpt lat="45.4229" lon="5.9294">
        <ele>1762.71</ele>
        <time>2013-08-22T12:24:30Z</time>
      </trkpt>
      <trkpt lat="45.42281" lon="5.9294">
        <ele>1765.12</ele>
        <time>2013-08-22T12:24:46Z</time>
      </trkpt>
      <trkpt lat="45.42271" lon="5.92939">
        <ele>1765.6</ele>
        <time>2013-08-22T12:25:07Z</time>
      </trkpt>
      <trkpt lat="45.42261" lon="5.92937">
        <ele>1769.44</ele>
        <time>2013-08-22T12:25:23Z</time>
      </trkpt>
      <trkpt lat="45.42253" lon="5.92931">
        <ele>1769.92</ele>
        <time>2013-08-22T12:25:46Z</time>
      </trkpt>
      <trkpt lat="45.42248" lon="5.92937">
        <ele>1771.85</ele>
        <time>2013-08-22T12:26:04Z</time>
      </trkpt>
      <trkpt lat="45.42244" lon="5.92947">
        <ele>1773.77</ele>
        <time>2013-08-22T12:26:21Z</time>
      </trkpt>
      <trkpt lat="45.42237" lon="5.92957">
        <ele>1778.1</ele>
        <time>2013-08-22T12:27:24Z</time>
      </trkpt>
      <trkpt lat="45.42231" lon="5.92966">
        <ele>1781.46</ele>
        <time>2013-08-22T12:27:40Z</time>
      </trkpt>
      <trkpt lat="45.42221" lon="5.92968">
        <ele>1785.79</ele>
        <time>2013-08-22T12:28:03Z</time>
      </trkpt>
      <trkpt lat="45.42213" lon="5.92974">
        <ele>1788.19</ele>
        <time>2013-08-22T12:28:25Z</time>
      </trkpt>
      <trkpt lat="45.42206" lon="5.92984">
        <ele>1789.15</ele>
        <time>2013-08-22T12:28:49Z</time>
      </trkpt>
      <trkpt lat="45.42205" lon="5.92996">
        <ele>1791.07</ele>
        <time>2013-08-22T12:29:09Z</time>
      </trkpt>
      <trkpt lat="45.42199" lon="5.93012">
        <ele>1793.48</ele>
        <time>2013-08-22T12:31:16Z</time>
      </trkpt>
      <trkpt lat="45.42196" lon="5.93027">
        <ele>1797.32</ele>
        <time>2013-08-22T12:31:37Z</time>
      </trkpt>
      <trkpt lat="45.4219" lon="5.93036">
        <ele>1799.73</ele>
        <time>2013-08-22T12:31:52Z</time>
      </trkpt>
      <trkpt lat="45.42181" lon="5.93032">
        <ele>1800.21</ele>
        <time>2013-08-22T12:32:07Z</time>
      </trkpt>
      <trkpt lat="45.42172" lon="5.93025">
        <ele>1802.13</ele>
        <time>2013-08-22T12:32:21Z</time>
      </trkpt>
      <trkpt lat="45.42163" lon="5.9302">
        <ele>1805.01</ele>
        <time>2013-08-22T12:32:39Z</time>
      </trkpt>
      <trkpt lat="45.42155" lon="5.93013">
        <ele>1809.34</ele>
        <time>2013-08-22T12:33:01Z</time>
      </trkpt>
      <trkpt lat="45.42147" lon="5.93009">
        <ele>1810.3</ele>
        <time>2013-08-22T12:33:15Z</time>
      </trkpt>
      <trkpt lat="45.42142" lon="5.92999">
        <ele>1812.22</ele>
        <time>2013-08-22T12:33:28Z</time>
      </trkpt>
      <trkpt lat="45.42138" lon="5.92988">
        <ele>1812.7</ele>
        <time>2013-08-22T12:33:40Z</time>
      </trkpt>
      <trkpt lat="45.42134" lon="5.92977">
        <ele>1812.7</ele>
        <time>2013-08-22T12:33:52Z</time>
      </trkpt>
      <trkpt lat="45.42129" lon="5.92966">
        <ele>1811.74</ele>
        <time>2013-08-22T12:34:03Z</time>
      </trkpt>
      <trkpt lat="45.42121" lon="5.92961">
        <ele>1810.3</ele>
        <time>2013-08-22T12:34:14Z</time>
      </trkpt>
      <trkpt lat="45.42111" lon="5.92958">
        <ele>1811.26</ele>
        <time>2013-08-22T12:34:27Z</time>
      </trkpt>
      <trkpt lat="45.42103" lon="5.92953">
        <ele>1812.7</ele>
        <time>2013-08-22T12:34:43Z</time>
      </trkpt>
      <trkpt lat="45.42095" lon="5.92946">
        <ele>1813.66</ele>
        <time>2013-08-22T12:35:11Z</time>
      </trkpt>
      <trkpt lat="45.42085" lon="5.92941">
        <ele>1813.18</ele>
        <time>2013-08-22T12:35:23Z</time>
      </trkpt>
      <trkpt lat="45.42075" lon="5.92935">
        <ele>1812.22</ele>
        <time>2013-08-22T12:35:35Z</time>
      </trkpt>
      <trkpt lat="45.42066" lon="5.9293">
        <ele>1812.7</ele>
        <time>2013-08-22T12:35:45Z</time>
      </trkpt>
      <trkpt lat="45.42057" lon="5.92924">
        <ele>1812.22</ele>
        <time>2013-08-22T12:35:55Z</time>
      </trkpt>
      <trkpt lat="45.42047" lon="5.92921">
        <ele>1811.74</ele>
        <time>2013-08-22T12:36:06Z</time>
      </trkpt>
      <trkpt lat="45.42039" lon="5.92914">
        <ele>1811.74</ele>
        <time>2013-08-22T12:36:17Z</time>
      </trkpt>
      <trkpt lat="45.4203" lon="5.92909">
        <ele>1811.26</ele>
        <time>2013-08-22T12:36:28Z</time>
      </trkpt>
      <trkpt lat="45.42021" lon="5.92905">
        <ele>1811.74</ele>
        <time>2013-08-22T12:36:39Z</time>
      </trkpt>
      <trkpt lat="45.42015" lon="5.92898">
        <ele>1811.26</ele>
        <time>2013-08-22T12:36:49Z</time>
      </trkpt>
      <trkpt lat="45.42007" lon="5.92889">
        <ele>1809.34</ele>
        <time>2013-08-22T12:36:58Z</time>
      </trkpt>
      <trkpt lat="45.41999" lon="5.92883">
        <ele>1808.86</ele>
        <time>2013-08-22T12:37:07Z</time>
      </trkpt>
      <trkpt lat="45.41991" lon="5.92877">
        <ele>1808.38</ele>
        <time>2013-08-22T12:37:17Z</time>
      </trkpt>
      <trkpt lat="45.41983" lon="5.9287">
        <ele>1807.42</ele>
        <time>2013-08-22T12:37:28Z</time>
      </trkpt>
      <trkpt lat="45.41974" lon="5.92867">
        <ele>1806.45</ele>
        <time>2013-08-22T12:37:38Z</time>
      </trkpt>
      <trkpt lat="45.41965" lon="5.92864">
        <ele>1805.49</ele>
        <time>2013-08-22T12:37:49Z</time>
      </trkpt>
      <trkpt lat="45.41955" lon="5.92862">
        <ele>1805.49</ele>
        <time>2013-08-22T12:37:58Z</time>
      </trkpt>
      <trkpt lat="45.41946" lon="5.92858">
        <ele>1805.01</ele>
        <time>2013-08-22T12:38:08Z</time>
      </trkpt>
      <trkpt lat="45.4194" lon="5.9285">
        <ele>1803.57</ele>
        <time>2013-08-22T12:38:18Z</time>
      </trkpt>
      <trkpt lat="45.41934" lon="5.9284">
        <ele>1803.09</ele>
        <time>2013-08-22T12:38:28Z</time>
      </trkpt>
      <trkpt lat="45.41927" lon="5.92834">
        <ele>1802.61</ele>
        <time>2013-08-22T12:38:37Z</time>
      </trkpt>
      <trkpt lat="45.41919" lon="5.92832">
        <ele>1804.53</ele>
        <time>2013-08-22T12:38:50Z</time>
      </trkpt>
      <trkpt lat="45.41911" lon="5.92828">
        <ele>1805.97</ele>
        <time>2013-08-22T12:39:03Z</time>
      </trkpt>
      <trkpt lat="45.41902" lon="5.92826">
        <ele>1805.49</ele>
        <time>2013-08-22T12:39:15Z</time>
      </trkpt>
      <trkpt lat="45.41892" lon="5.92822">
        <ele>1805.01</ele>
        <time>2013-08-22T12:39:27Z</time>
      </trkpt>
      <trkpt lat="45.41883" lon="5.92818">
        <ele>1805.01</ele>
        <time>2013-08-22T12:39:40Z</time>
      </trkpt>
      <trkpt lat="45.41874" lon="5.92812">
        <ele>1805.97</ele>
        <time>2013-08-22T12:39:51Z</time>
      </trkpt>
      <trkpt lat="45.41868" lon="5.92805">
        <ele>1807.42</ele>
        <time>2013-08-22T12:40:02Z</time>
      </trkpt>
      <trkpt lat="45.41862" lon="5.92794">
        <ele>1806.94</ele>
        <time>2013-08-22T12:40:13Z</time>
      </trkpt>
      <trkpt lat="45.41853" lon="5.92792">
        <ele>1806.94</ele>
        <time>2013-08-22T12:40:24Z</time>
      </trkpt>
      <trkpt lat="45.41844" lon="5.92788">
        <ele>1807.42</ele>
        <time>2013-08-22T12:40:35Z</time>
      </trkpt>
      <trkpt lat="45.41835" lon="5.92787">
        <ele>1806.45</ele>
        <time>2013-08-22T12:40:44Z</time>
      </trkpt>
      <trkpt lat="45.41828" lon="5.92794">
        <ele>1805.97</ele>
        <time>2013-08-22T12:40:54Z</time>
      </trkpt>
      <trkpt lat="45.41822" lon="5.92802">
        <ele>1806.94</ele>
        <time>2013-08-22T12:41:05Z</time>
      </trkpt>
      <trkpt lat="45.41812" lon="5.92806">
        <ele>1806.94</ele>
        <time>2013-08-22T12:41:18Z</time>
      </trkpt>
      <trkpt lat="45.41805" lon="5.92812">
        <ele>1805.01</ele>
        <time>2013-08-22T12:41:30Z</time>
      </trkpt>
      <trkpt lat="45.41797" lon="5.92813">
        <ele>1803.57</ele>
        <time>2013-08-22T12:41:40Z</time>
      </trkpt>
      <trkpt lat="45.41788" lon="5.92811">
        <ele>1803.09</ele>
        <time>2013-08-22T12:41:49Z</time>
      </trkpt>
      <trkpt lat="45.4178" lon="5.92805">
        <ele>1801.17</ele>
        <time>2013-08-22T12:41:59Z</time>
      </trkpt>
      <trkpt lat="45.41771" lon="5.92801">
        <ele>1798.76</ele>
        <time>2013-08-22T12:42:16Z</time>
      </trkpt>
      <trkpt lat="45.41763" lon="5.928">
        <ele>1797.32</ele>
        <time>2013-08-22T12:42:29Z</time>
      </trkpt>
      <trkpt lat="45.41754" lon="5.92799">
        <ele>1796.36</ele>
        <time>2013-08-22T12:42:44Z</time>
      </trkpt>
      <trkpt lat="45.41744" lon="5.92795">
        <ele>1797.32</ele>
        <time>2013-08-22T12:43:06Z</time>
      </trkpt>
      <trkpt lat="45.41735" lon="5.92793">
        <ele>1796.84</ele>
        <time>2013-08-22T12:43:15Z</time>
      </trkpt>
      <trkpt lat="45.41725" lon="5.92795">
        <ele>1793.96</ele>
        <time>2013-08-22T12:43:24Z</time>
      </trkpt>
      <trkpt lat="45.41724" lon="5.92808">
        <ele>1791.55</ele>
        <time>2013-08-22T12:43:34Z</time>
      </trkpt>
      <trkpt lat="45.41725" lon="5.92822">
        <ele>1789.63</ele>
        <time>2013-08-22T12:43:45Z</time>
      </trkpt>
      <trkpt lat="45.41723" lon="5.92835">
        <ele>1787.71</ele>
        <time>2013-08-22T12:43:55Z</time>
      </trkpt>
      <trkpt lat="45.41721" lon="5.92849">
        <ele>1786.27</ele>
        <time>2013-08-22T12:44:06Z</time>
      </trkpt>
      <trkpt lat="45.4172" lon="5.92862">
        <ele>1783.86</ele>
        <time>2013-08-22T12:44:17Z</time>
      </trkpt>
      <trkpt lat="45.41715" lon="5.92874">
        <ele>1783.38</ele>
        <time>2013-08-22T12:44:27Z</time>
      </trkpt>
      <trkpt lat="45.41714" lon="5.92887">
        <ele>1781.94</ele>
        <time>2013-08-22T12:44:36Z</time>
      </trkpt>
      <trkpt lat="45.41716" lon="5.92899">
        <ele>1781.94</ele>
        <time>2013-08-22T12:44:46Z</time>
      </trkpt>
      <trkpt lat="45.41719" lon="5.92908">
        <ele>1782.42</ele>
        <time>2013-08-22T12:45:00Z</time>
      </trkpt>
      <trkpt lat="45.41722" lon="5.9292">
        <ele>1781.46</ele>
        <time>2013-08-22T12:45:10Z</time>
      </trkpt>
      <trkpt lat="45.41723" lon="5.92934">
        <ele>1779.06</ele>
        <time>2013-08-22T12:45:22Z</time>
      </trkpt>
      <trkpt lat="45.41726" lon="5.92944">
        <ele>1775.69</ele>
        <time>2013-08-22T12:45:37Z</time>
      </trkpt>
      <trkpt lat="45.41727" lon="5.92956">
        <ele>1780.5</ele>
        <time>2013-08-22T12:46:51Z</time>
      </trkpt>
      <trkpt lat="45.4173" lon="5.92969">
        <ele>1778.58</ele>
        <time>2013-08-22T12:47:01Z</time>
      </trkpt>
      <trkpt lat="45.41732" lon="5.92981">
        <ele>1776.65</ele>
        <time>2013-08-22T12:47:12Z</time>
      </trkpt>
      <trkpt lat="45.41735" lon="5.92992">
        <ele>1775.21</ele>
        <time>2013-08-22T12:47:21Z</time>
      </trkpt>
      <trkpt lat="45.41738" lon="5.93006">
        <ele>1774.73</ele>
        <time>2013-08-22T12:47:30Z</time>
      </trkpt>
      <trkpt lat="45.41738" lon="5.93018">
        <ele>1775.21</ele>
        <time>2013-08-22T12:47:43Z</time>
      </trkpt>
      <trkpt lat="45.41734" lon="5.9303">
        <ele>1775.69</ele>
        <time>2013-08-22T12:47:55Z</time>
      </trkpt>
      <trkpt lat="45.41732" lon="5.93044">
        <ele>1777.61</ele>
        <time>2013-08-22T12:48:08Z</time>
      </trkpt>
      <trkpt lat="45.41733" lon="5.93058">
        <ele>1776.17</ele>
        <time>2013-08-22T12:48:20Z</time>
      </trkpt>
      <trkpt lat="45.41734" lon="5.93072">
        <ele>1772.81</ele>
        <time>2013-08-22T12:48:32Z</time>
      </trkpt>
      <trkpt lat="45.41737" lon="5.93085">
        <ele>1770.89</ele>
        <time>2013-08-22T12:48:42Z</time>
      </trkpt>
      <trkpt lat="45.41738" lon="5.93098">
        <ele>1770.41</ele>
        <time>2013-08-22T12:48:53Z</time>
      </trkpt>
      <trkpt lat="45.41745" lon="5.93108">
        <ele>1767.52</ele>
        <time>2013-08-22T12:49:11Z</time>
      </trkpt>
      <trkpt lat="45.41751" lon="5.93117">
        <ele>1764.64</ele>
        <time>2013-08-22T12:49:30Z</time>
      </trkpt>
      <trkpt lat="45.41753" lon="5.93128">
        <ele>1762.71</ele>
        <time>2013-08-22T12:49:45Z</time>
      </trkpt>
      <trkpt lat="45.41757" lon="5.93134">
        <ele>1761.75</ele>
        <time>2013-08-22T12:50:03Z</time>
      </trkpt>
      <trkpt lat="45.41759" lon="5.93124">
        <ele>1756.95</ele>
        <time>2013-08-22T12:50:22Z</time>
      </trkpt>
      <trkpt lat="45.41767" lon="5.93125">
        <ele>1756.47</ele>
        <time>2013-08-22T12:50:40Z</time>
      </trkpt>
      <trkpt lat="45.41769" lon="5.93136">
        <ele>1755.02</ele>
        <time>2013-08-22T12:50:59Z</time>
      </trkpt>
      <trkpt lat="45.41769" lon="5.93144">
        <ele>1750.22</ele>
        <time>2013-08-22T12:51:19Z</time>
      </trkpt>
      <trkpt lat="45.41776" lon="5.93143">
        <ele>1746.37</ele>
        <time>2013-08-22T12:51:37Z</time>
      </trkpt>
      <trkpt lat="45.41777" lon="5.93155">
        <ele>1745.41</ele>
        <time>2013-08-22T12:51:50Z</time>
      </trkpt>
      <trkpt lat="45.41775" lon="5.93169">
        <ele>1743.01</ele>
        <time>2013-08-22T12:52:05Z</time>
      </trkpt>
      <trkpt lat="45.41772" lon="5.93181">
        <ele>1743.01</ele>
        <time>2013-08-22T12:52:18Z</time>
      </trkpt>
      <trkpt lat="45.41772" lon="5.93194">
        <ele>1743.01</ele>
        <time>2013-08-22T12:52:31Z</time>
      </trkpt>
      <trkpt lat="45.41774" lon="5.93188">
        <ele>1738.2</ele>
        <time>2013-08-22T12:52:54Z</time>
      </trkpt>
      <trkpt lat="45.41785" lon="5.93179">
        <ele>1736.76</ele>
        <time>2013-08-22T12:53:18Z</time>
      </trkpt>
      <trkpt lat="45.41786" lon="5.9319">
        <ele>1734.84</ele>
        <time>2013-08-22T12:53:34Z</time>
      </trkpt>
      <trkpt lat="45.41785" lon="5.93203">
        <ele>1734.36</ele>
        <time>2013-08-22T12:53:46Z</time>
      </trkpt>
      <trkpt lat="45.41782" lon="5.93213">
        <ele>1732.91</ele>
        <time>2013-08-22T12:54:00Z</time>
      </trkpt>
      <trkpt lat="45.41781" lon="5.93226">
        <ele>1733.88</ele>
        <time>2013-08-22T12:54:21Z</time>
      </trkpt>
      <trkpt lat="45.41779" lon="5.93243">
        <ele>1732.43</ele>
        <time>2013-08-22T12:54:40Z</time>
      </trkpt>
      <trkpt lat="45.41772" lon="5.93253">
        <ele>1726.18</ele>
        <time>2013-08-22T12:54:52Z</time>
      </trkpt>
      <trkpt lat="45.41771" lon="5.93258">
        <ele>1721.38</ele>
        <time>2013-08-22T12:55:07Z</time>
      </trkpt>
      <trkpt lat="45.41779" lon="5.93258">
        <ele>1717.05</ele>
        <time>2013-08-22T12:55:27Z</time>
      </trkpt>
      <trkpt lat="45.41782" lon="5.93268">
        <ele>1717.05</ele>
        <time>2013-08-22T12:55:42Z</time>
      </trkpt>
      <trkpt lat="45.41776" lon="5.93278">
        <ele>1713.21</ele>
        <time>2013-08-22T12:55:56Z</time>
      </trkpt>
      <trkpt lat="45.41781" lon="5.93286">
        <ele>1712.25</ele>
        <time>2013-08-22T12:56:11Z</time>
      </trkpt>
      <trkpt lat="45.41788" lon="5.93292">
        <ele>1709.84</ele>
        <time>2013-08-22T12:56:26Z</time>
      </trkpt>
      <trkpt lat="45.41791" lon="5.9329">
        <ele>1704.55</ele>
        <time>2013-08-22T12:56:41Z</time>
      </trkpt>
      <trkpt lat="45.41795" lon="5.93278">
        <ele>1700.71</ele>
        <time>2013-08-22T12:56:58Z</time>
      </trkpt>
      <trkpt lat="45.41802" lon="5.93269">
        <ele>1695.9</ele>
        <time>2013-08-22T12:57:25Z</time>
      </trkpt>
      <trkpt lat="45.4181" lon="5.93272">
        <ele>1694.46</ele>
        <time>2013-08-22T12:57:49Z</time>
      </trkpt>
      <trkpt lat="45.41815" lon="5.93281">
        <ele>1694.94</ele>
        <time>2013-08-22T12:58:09Z</time>
      </trkpt>
      <trkpt lat="45.41823" lon="5.93291">
        <ele>1696.86</ele>
        <time>2013-08-22T12:58:28Z</time>
      </trkpt>
      <trkpt lat="45.41826" lon="5.93293">
        <ele>1697.83</ele>
        <time>2013-08-22T12:58:51Z</time>
      </trkpt>
      <trkpt lat="45.41833" lon="5.93304">
        <ele>1689.65</ele>
        <time>2013-08-22T12:59:28Z</time>
      </trkpt>
      <trkpt lat="45.41836" lon="5.9331">
        <ele>1687.73</ele>
        <time>2013-08-22T12:59:44Z</time>
      </trkpt>
      <trkpt lat="45.41845" lon="5.9331">
        <ele>1688.69</ele>
        <time>2013-08-22T13:00:02Z</time>
      </trkpt>
      <trkpt lat="45.41847" lon="5.93301">
        <ele>1682.44</ele>
        <time>2013-08-22T13:00:18Z</time>
      </trkpt>
      <trkpt lat="45.41854" lon="5.93285">
        <ele>1672.83</ele>
        <time>2013-08-22T13:00:42Z</time>
      </trkpt>
      <trkpt lat="45.41866" lon="5.9327">
        <ele>1663.7</ele>
        <time>2013-08-22T13:01:02Z</time>
      </trkpt>
      <trkpt lat="45.41877" lon="5.93273">
        <ele>1659.37</ele>
        <time>2013-08-22T13:01:21Z</time>
      </trkpt>
      <trkpt lat="45.41879" lon="5.9328">
        <ele>1656.49</ele>
        <time>2013-08-22T13:01:37Z</time>
      </trkpt>
      <trkpt lat="45.41877" lon="5.93292">
        <ele>1654.57</ele>
        <time>2013-08-22T13:01:56Z</time>
      </trkpt>
      <trkpt lat="45.41877" lon="5.93301">
        <ele>1653.12</ele>
        <time>2013-08-22T13:02:17Z</time>
      </trkpt>
      <trkpt lat="45.41885" lon="5.93304">
        <ele>1650.24</ele>
        <time>2013-08-22T13:02:39Z</time>
      </trkpt>
      <trkpt lat="45.41892" lon="5.93309">
        <ele>1647.84</ele>
        <time>2013-08-22T13:03:00Z</time>
      </trkpt>
      <trkpt lat="45.41895" lon="5.93309">
        <ele>1642.55</ele>
        <time>2013-08-22T13:03:21Z</time>
      </trkpt>
      <trkpt lat="45.41903" lon="5.93309">
        <ele>1637.26</ele>
        <time>2013-08-22T13:03:37Z</time>
      </trkpt>
      <trkpt lat="45.41912" lon="5.93315">
        <ele>1637.26</ele>
        <time>2013-08-22T13:03:47Z</time>
      </trkpt>
      <trkpt lat="45.4192" lon="5.93324">
        <ele>1640.15</ele>
        <time>2013-08-22T13:03:58Z</time>
      </trkpt>
      <trkpt lat="45.41929" lon="5.93332">
        <ele>1642.55</ele>
        <time>2013-08-22T13:04:09Z</time>
      </trkpt>
      <trkpt lat="45.4194" lon="5.93337">
        <ele>1641.11</ele>
        <time>2013-08-22T13:04:20Z</time>
      </trkpt>
      <trkpt lat="45.41951" lon="5.93342">
        <ele>1638.22</ele>
        <time>2013-08-22T13:04:31Z</time>
      </trkpt>
      <trkpt lat="45.41963" lon="5.93346">
        <ele>1636.78</ele>
        <time>2013-08-22T13:04:43Z</time>
      </trkpt>
      <trkpt lat="45.41976" lon="5.93341">
        <ele>1636.78</ele>
        <time>2013-08-22T13:04:57Z</time>
      </trkpt>
      <trkpt lat="45.41987" lon="5.93345">
        <ele>1640.63</ele>
        <time>2013-08-22T13:05:09Z</time>
      </trkpt>
      <trkpt lat="45.41997" lon="5.93351">
        <ele>1644.95</ele>
        <time>2013-08-22T13:05:21Z</time>
      </trkpt>
      <trkpt lat="45.42007" lon="5.93346">
        <ele>1645.91</ele>
        <time>2013-08-22T13:05:33Z</time>
      </trkpt>
      <trkpt lat="45.42019" lon="5.93339">
        <ele>1644.95</ele>
        <time>2013-08-22T13:05:45Z</time>
      </trkpt>
      <trkpt lat="45.42031" lon="5.9334">
        <ele>1645.43</ele>
        <time>2013-08-22T13:05:55Z</time>
      </trkpt>
      <trkpt lat="45.42038" lon="5.93348">
        <ele>1646.4</ele>
        <time>2013-08-22T13:06:09Z</time>
      </trkpt>
      <trkpt lat="45.42047" lon="5.93355">
        <ele>1646.88</ele>
        <time>2013-08-22T13:06:23Z</time>
      </trkpt>
      <trkpt lat="45.42059" lon="5.93358">
        <ele>1644.95</ele>
        <time>2013-08-22T13:06:37Z</time>
      </trkpt>
      <trkpt lat="45.42074" lon="5.93358">
        <ele>1643.99</ele>
        <time>2013-08-22T13:06:51Z</time>
      </trkpt>
      <trkpt lat="45.42079" lon="5.93369">
        <ele>1642.55</ele>
        <time>2013-08-22T13:07:01Z</time>
      </trkpt>
      <trkpt lat="45.42089" lon="5.93376">
        <ele>1640.15</ele>
        <time>2013-08-22T13:07:12Z</time>
      </trkpt>
      <trkpt lat="45.42102" lon="5.9338">
        <ele>1638.22</ele>
        <time>2013-08-22T13:07:23Z</time>
      </trkpt>
      <trkpt lat="45.42116" lon="5.9338">
        <ele>1638.7</ele>
        <time>2013-08-22T13:07:35Z</time>
      </trkpt>
      <trkpt lat="45.42125" lon="5.93388">
        <ele>1639.19</ele>
        <time>2013-08-22T13:07:46Z</time>
      </trkpt>
      <trkpt lat="45.42137" lon="5.93381">
        <ele>1636.3</ele>
        <time>2013-08-22T13:07:57Z</time>
      </trkpt>
      <trkpt lat="45.42146" lon="5.93377">
        <ele>1635.82</ele>
        <time>2013-08-22T13:08:08Z</time>
      </trkpt>
      <trkpt lat="45.42155" lon="5.93391">
        <ele>1636.3</ele>
        <time>2013-08-22T13:08:20Z</time>
      </trkpt>
      <trkpt lat="45.42165" lon="5.93395">
        <ele>1637.74</ele>
        <time>2013-08-22T13:08:33Z</time>
      </trkpt>
      <trkpt lat="45.42172" lon="5.93405">
        <ele>1639.19</ele>
        <time>2013-08-22T13:08:42Z</time>
      </trkpt>
      <trkpt lat="45.42184" lon="5.93388">
        <ele>1635.82</ele>
        <time>2013-08-22T13:08:55Z</time>
      </trkpt>
      <trkpt lat="45.42195" lon="5.93383">
        <ele>1636.3</ele>
        <time>2013-08-22T13:09:10Z</time>
      </trkpt>
      <trkpt lat="45.42207" lon="5.93386">
        <ele>1637.26</ele>
        <time>2013-08-22T13:09:23Z</time>
      </trkpt>
      <trkpt lat="45.42211" lon="5.93396">
        <ele>1638.22</ele>
        <time>2013-08-22T13:09:36Z</time>
      </trkpt>
      <trkpt lat="45.42223" lon="5.93397">
        <ele>1637.74</ele>
        <time>2013-08-22T13:09:51Z</time>
      </trkpt>
      <trkpt lat="45.42232" lon="5.93404">
        <ele>1636.78</ele>
        <time>2013-08-22T13:10:07Z</time>
      </trkpt>
      <trkpt lat="45.42241" lon="5.93411">
        <ele>1634.38</ele>
        <time>2013-08-22T13:10:24Z</time>
      </trkpt>
      <trkpt lat="45.42248" lon="5.93424">
        <ele>1630.05</ele>
        <time>2013-08-22T13:10:37Z</time>
      </trkpt>
      <trkpt lat="45.42258" lon="5.93432">
        <ele>1627.65</ele>
        <time>2013-08-22T13:10:51Z</time>
      </trkpt>
      <trkpt lat="45.42271" lon="5.93445">
        <ele>1623.8</ele>
        <time>2013-08-22T13:11:07Z</time>
      </trkpt>
      <trkpt lat="45.42283" lon="5.93458">
        <ele>1623.8</ele>
        <time>2013-08-22T13:11:20Z</time>
      </trkpt>
      <trkpt lat="45.42293" lon="5.93468">
        <ele>1622.84</ele>
        <time>2013-08-22T13:11:32Z</time>
      </trkpt>
      <trkpt lat="45.42305" lon="5.93476">
        <ele>1623.32</ele>
        <time>2013-08-22T13:11:46Z</time>
      </trkpt>
      <trkpt lat="45.42319" lon="5.9349">
        <ele>1618.52</ele>
        <time>2013-08-22T13:12:01Z</time>
      </trkpt>
      <trkpt lat="45.42328" lon="5.93501">
        <ele>1619.96</ele>
        <time>2013-08-22T13:12:16Z</time>
      </trkpt>
      <trkpt lat="45.4234" lon="5.93508">
        <ele>1619.48</ele>
        <time>2013-08-22T13:12:30Z</time>
      </trkpt>
      <trkpt lat="45.42349" lon="5.93519">
        <ele>1617.56</ele>
        <time>2013-08-22T13:12:45Z</time>
      </trkpt>
      <trkpt lat="45.42358" lon="5.9353">
        <ele>1617.56</ele>
        <time>2013-08-22T13:12:59Z</time>
      </trkpt>
      <trkpt lat="45.42371" lon="5.93534">
        <ele>1616.11</ele>
        <time>2013-08-22T13:13:12Z</time>
      </trkpt>
      <trkpt lat="45.42383" lon="5.93541">
        <ele>1614.19</ele>
        <time>2013-08-22T13:13:26Z</time>
      </trkpt>
      <trkpt lat="45.42393" lon="5.93551">
        <ele>1614.19</ele>
        <time>2013-08-22T13:13:39Z</time>
      </trkpt>
      <trkpt lat="45.42399" lon="5.93563">
        <ele>1611.79</ele>
        <time>2013-08-22T13:13:51Z</time>
      </trkpt>
      <trkpt lat="45.42412" lon="5.93572">
        <ele>1609.86</ele>
        <time>2013-08-22T13:14:06Z</time>
      </trkpt>
      <trkpt lat="45.42419" lon="5.93586">
        <ele>1606.02</ele>
        <time>2013-08-22T13:14:19Z</time>
      </trkpt>
      <trkpt lat="45.42426" lon="5.93602">
        <ele>1602.66</ele>
        <time>2013-08-22T13:14:33Z</time>
      </trkpt>
      <trkpt lat="45.42437" lon="5.93617">
        <ele>1603.14</ele>
        <time>2013-08-22T13:14:49Z</time>
      </trkpt>
      <trkpt lat="45.42447" lon="5.93629">
        <ele>1600.73</ele>
        <time>2013-08-22T13:15:06Z</time>
      </trkpt>
      <trkpt lat="45.42456" lon="5.93644">
        <ele>1596.89</ele>
        <time>2013-08-22T13:15:23Z</time>
      </trkpt>
      <trkpt lat="45.42464" lon="5.93659">
        <ele>1594.48</ele>
        <time>2013-08-22T13:15:40Z</time>
      </trkpt>
      <trkpt lat="45.42476" lon="5.93676">
        <ele>1590.16</ele>
        <time>2013-08-22T13:16:00Z</time>
      </trkpt>
      <trkpt lat="45.42486" lon="5.93691">
        <ele>1591.12</ele>
        <time>2013-08-22T13:16:21Z</time>
      </trkpt>
      <trkpt lat="45.42498" lon="5.93705">
        <ele>1588.72</ele>
        <time>2013-08-22T13:16:39Z</time>
      </trkpt>
      <trkpt lat="45.42511" lon="5.93717">
        <ele>1585.35</ele>
        <time>2013-08-22T13:16:54Z</time>
      </trkpt>
      <trkpt lat="45.42524" lon="5.93723">
        <ele>1581.51</ele>
        <time>2013-08-22T13:17:09Z</time>
      </trkpt>
      <trkpt lat="45.42526" lon="5.93729">
        <ele>1579.58</ele>
        <time>2013-08-22T13:17:31Z</time>
      </trkpt>
      <trkpt lat="45.42518" lon="5.93729">
        <ele>1576.22</ele>
        <time>2013-08-22T13:17:45Z</time>
      </trkpt>
      <trkpt lat="45.42507" lon="5.93725">
        <ele>1574.3</ele>
        <time>2013-08-22T13:17:56Z</time>
      </trkpt>
      <trkpt lat="45.42494" lon="5.93721">
        <ele>1572.37</ele>
        <time>2013-08-22T13:18:08Z</time>
      </trkpt>
      <trkpt lat="45.42485" lon="5.93715">
        <ele>1567.09</ele>
        <time>2013-08-22T13:18:27Z</time>
      </trkpt>
      <trkpt lat="45.42478" lon="5.93708">
        <ele>1561.8</ele>
        <time>2013-08-22T13:18:42Z</time>
      </trkpt>
      <trkpt lat="45.42469" lon="5.93703">
        <ele>1561.32</ele>
        <time>2013-08-22T13:18:55Z</time>
      </trkpt>
      <trkpt lat="45.42461" lon="5.93699">
        <ele>1559.88</ele>
        <time>2013-08-22T13:19:07Z</time>
      </trkpt>
      <trkpt lat="45.42452" lon="5.93691">
        <ele>1558.92</ele>
        <time>2013-08-22T13:19:19Z</time>
      </trkpt>
      <trkpt lat="45.42442" lon="5.93685">
        <ele>1558.43</ele>
        <time>2013-08-22T13:19:32Z</time>
      </trkpt>
      <trkpt lat="45.42432" lon="5.93677">
        <ele>1557.47</ele>
        <time>2013-08-22T13:19:45Z</time>
      </trkpt>
      <trkpt lat="45.42422" lon="5.93669">
        <ele>1556.51</ele>
        <time>2013-08-22T13:19:57Z</time>
      </trkpt>
      <trkpt lat="45.42413" lon="5.93661">
        <ele>1554.11</ele>
        <time>2013-08-22T13:20:09Z</time>
      </trkpt>
      <trkpt lat="45.42408" lon="5.93659">
        <ele>1552.67</ele>
        <time>2013-08-22T13:20:22Z</time>
      </trkpt>
      <trkpt lat="45.42411" lon="5.93669">
        <ele>1554.11</ele>
        <time>2013-08-22T13:20:38Z</time>
      </trkpt>
      <trkpt lat="45.42419" lon="5.93679">
        <ele>1554.11</ele>
        <time>2013-08-22T13:20:56Z</time>
      </trkpt>
      <trkpt lat="45.42426" lon="5.93692">
        <ele>1551.71</ele>
        <time>2013-08-22T13:21:11Z</time>
      </trkpt>
      <trkpt lat="45.42432" lon="5.93705">
        <ele>1553.15</ele>
        <time>2013-08-22T13:21:25Z</time>
      </trkpt>
      <trkpt lat="45.4244" lon="5.93719">
        <ele>1551.22</ele>
        <time>2013-08-22T13:21:39Z</time>
      </trkpt>
      <trkpt lat="45.42447" lon="5.93733">
        <ele>1550.26</ele>
        <time>2013-08-22T13:21:52Z</time>
      </trkpt>
      <trkpt lat="45.4246" lon="5.93745">
        <ele>1544.98</ele>
        <time>2013-08-22T13:22:05Z</time>
      </trkpt>
      <trkpt lat="45.42464" lon="5.93758">
        <ele>1540.65</ele>
        <time>2013-08-22T13:22:22Z</time>
      </trkpt>
      <trkpt lat="45.42461" lon="5.93772">
        <ele>1534.88</ele>
        <time>2013-08-22T13:22:41Z</time>
      </trkpt>
      <trkpt lat="45.42452" lon="5.93769">
        <ele>1530.56</ele>
        <time>2013-08-22T13:22:54Z</time>
      </trkpt>
      <trkpt lat="45.42445" lon="5.93771">
        <ele>1526.23</ele>
        <time>2013-08-22T13:23:09Z</time>
      </trkpt>
      <trkpt lat="45.42449" lon="5.93779">
        <ele>1521.9</ele>
        <time>2013-08-22T13:23:27Z</time>
      </trkpt>
      <trkpt lat="45.42453" lon="5.93789">
        <ele>1519.98</ele>
        <time>2013-08-22T13:23:43Z</time>
      </trkpt>
      <trkpt lat="45.4246" lon="5.93802">
        <ele>1517.58</ele>
        <time>2013-08-22T13:24:01Z</time>
      </trkpt>
      <trkpt lat="45.42467" lon="5.93814">
        <ele>1514.21</ele>
        <time>2013-08-22T13:24:20Z</time>
      </trkpt>
      <trkpt lat="45.42463" lon="5.93823">
        <ele>1511.81</ele>
        <time>2013-08-22T13:24:35Z</time>
      </trkpt>
      <trkpt lat="45.42455" lon="5.93827">
        <ele>1507.97</ele>
        <time>2013-08-22T13:24:51Z</time>
      </trkpt>
      <trkpt lat="45.42442" lon="5.93823">
        <ele>1505.08</ele>
        <time>2013-08-22T13:25:08Z</time>
      </trkpt>
      <trkpt lat="45.42432" lon="5.9382">
        <ele>1502.68</ele>
        <time>2013-08-22T13:25:21Z</time>
      </trkpt>
      <trkpt lat="45.42423" lon="5.93814">
        <ele>1500.27</ele>
        <time>2013-08-22T13:25:38Z</time>
      </trkpt>
      <trkpt lat="45.42414" lon="5.93805">
        <ele>1498.35</ele>
        <time>2013-08-22T13:25:51Z</time>
      </trkpt>
      <trkpt lat="45.42405" lon="5.93797">
        <ele>1495.95</ele>
        <time>2013-08-22T13:26:07Z</time>
      </trkpt>
      <trkpt lat="45.42398" lon="5.9379">
        <ele>1492.58</ele>
        <time>2013-08-22T13:26:20Z</time>
      </trkpt>
      <trkpt lat="45.4239" lon="5.93782">
        <ele>1492.1</ele>
        <time>2013-08-22T13:26:40Z</time>
      </trkpt>
      <trkpt lat="45.42383" lon="5.93776">
        <ele>1491.62</ele>
        <time>2013-08-22T13:26:57Z</time>
      </trkpt>
      <trkpt lat="45.42374" lon="5.93773">
        <ele>1492.1</ele>
        <time>2013-08-22T13:27:13Z</time>
      </trkpt>
      <trkpt lat="45.42365" lon="5.93773">
        <ele>1497.87</ele>
        <time>2013-08-22T13:27:37Z</time>
      </trkpt>
      <trkpt lat="45.42348" lon="5.93775">
        <ele>1495.95</ele>
        <time>2013-08-22T13:28:05Z</time>
      </trkpt>
      <trkpt lat="45.42337" lon="5.93771">
        <ele>1495.47</ele>
        <time>2013-08-22T13:28:25Z</time>
      </trkpt>
      <trkpt lat="45.42325" lon="5.93772">
        <ele>1494.51</ele>
        <time>2013-08-22T13:28:45Z</time>
      </trkpt>
      <trkpt lat="45.42313" lon="5.93779">
        <ele>1494.99</ele>
        <time>2013-08-22T13:29:05Z</time>
      </trkpt>
      <trkpt lat="45.42293" lon="5.9378">
        <ele>1490.66</ele>
        <time>2013-08-22T13:29:49Z</time>
      </trkpt>
      <trkpt lat="45.42276" lon="5.93774">
        <ele>1487.78</ele>
        <time>2013-08-22T13:30:14Z</time>
      </trkpt>
      <trkpt lat="45.42265" lon="5.93777">
        <ele>1490.18</ele>
        <time>2013-08-22T13:30:33Z</time>
      </trkpt>
      <trkpt lat="45.42251" lon="5.9378">
        <ele>1490.18</ele>
        <time>2013-08-22T13:31:00Z</time>
      </trkpt>
      <trkpt lat="45.42235" lon="5.93781">
        <ele>1485.37</ele>
        <time>2013-08-22T13:31:20Z</time>
      </trkpt>
      <trkpt lat="45.42224" lon="5.93776">
        <ele>1477.2</ele>
        <time>2013-08-22T13:31:41Z</time>
      </trkpt>
      <trkpt lat="45.42211" lon="5.93767">
        <ele>1472.88</ele>
        <time>2013-08-22T13:32:07Z</time>
      </trkpt>
      <trkpt lat="45.42198" lon="5.93767">
        <ele>1471.44</ele>
        <time>2013-08-22T13:32:29Z</time>
      </trkpt>
      <trkpt lat="45.42186" lon="5.93763">
        <ele>1471.44</ele>
        <time>2013-08-22T13:32:48Z</time>
      </trkpt>
      <trkpt lat="45.42175" lon="5.93768">
        <ele>1477.2</ele>
        <time>2013-08-22T13:33:07Z</time>
      </trkpt>
      <trkpt lat="45.42158" lon="5.93769">
        <ele>1474.8</ele>
        <time>2013-08-22T13:33:30Z</time>
      </trkpt>
      <trkpt lat="45.42144" lon="5.93766">
        <ele>1472.4</ele>
        <time>2013-08-22T13:33:46Z</time>
      </trkpt>
      <trkpt lat="45.42131" lon="5.93762">
        <ele>1464.71</ele>
        <time>2013-08-22T13:34:02Z</time>
      </trkpt>
      <trkpt lat="45.42117" lon="5.93766">
        <ele>1450.77</ele>
        <time>2013-08-22T13:34:25Z</time>
      </trkpt>
      <trkpt lat="45.42108" lon="5.93755">
        <ele>1445.96</ele>
        <time>2013-08-22T13:34:38Z</time>
      </trkpt>
      <trkpt lat="45.421" lon="5.93746">
        <ele>1443.56</ele>
        <time>2013-08-22T13:34:50Z</time>
      </trkpt>
      <trkpt lat="45.42092" lon="5.93739">
        <ele>1422.89</ele>
        <time>2013-08-22T13:36:48Z</time>
      </trkpt>
      <trkpt lat="45.42092" lon="5.93734">
        <ele>1424.81</ele>
        <time>2013-08-22T13:39:09Z</time>
      </trkpt>
      <trkpt lat="45.42099" lon="5.93743">
        <ele>1425.29</ele>
        <time>2013-08-22T13:40:06Z</time>
      </trkpt>
      <trkpt lat="45.421" lon="5.93759">
        <ele>1426.73</ele>
        <time>2013-08-22T13:40:20Z</time>
      </trkpt>
      <trkpt lat="45.42094" lon="5.93766">
        <ele>1429.62</ele>
        <time>2013-08-22T13:40:32Z</time>
      </trkpt>
      <trkpt lat="45.42088" lon="5.9377">
        <ele>1436.83</ele>
        <time>2013-08-22T13:40:47Z</time>
      </trkpt>
      <trkpt lat="45.42071" lon="5.93766">
        <ele>1428.66</ele>
        <time>2013-08-22T13:43:42Z</time>
      </trkpt>
      <trkpt lat="45.4206" lon="5.93767">
        <ele>1427.21</ele>
        <time>2013-08-22T13:43:50Z</time>
      </trkpt>
      <trkpt lat="45.42047" lon="5.93762">
        <ele>1423.85</ele>
        <time>2013-08-22T13:43:56Z</time>
      </trkpt>
      <trkpt lat="45.42036" lon="5.93759">
        <ele>1420.97</ele>
        <time>2013-08-22T13:44:01Z</time>
      </trkpt>
      <trkpt lat="45.42023" lon="5.93755">
        <ele>1418.08</ele>
        <time>2013-08-22T13:44:06Z</time>
      </trkpt>
    </trkseg>
  </trk>
</gpx>